<?xml version="1.0" encoding="UTF-8" standalone="no" ?>
<gpx xmlns="http://www.topografix.com/GPX/1/1" xmlns:xsi="http://www.w3.org/2001/XMLSchema-instance" xsi:schemaLocation="http://www.topografix.com/GPX/1/1 http://www.topografix.com/GPX/1/1/gpx.xsd" version="1.1" creator="VisuGPX - https://www.visugpx.com">
  <metadata>
    <name>Aups 20121030</name>
    <desc><![CDATA[Aups, Chaine des Crêtes ]]></desc>
  </metadata>
  <trk>
    <name><![CDATA[Sequence 1]]></name>
    <trkseg>
      <trkpt lat="43.62814" lon="6.2266">
        <ele>490.70001220703</ele>
        <time>2012-10-30T08:47:22</time>
      </trkpt>
      <trkpt lat="43.62818" lon="6.22677">
        <ele>493.5</ele>
        <time>2012-10-30T08:47:32</time>
      </trkpt>
      <trkpt lat="43.62838" lon="6.22713">
        <ele>495.79998779297</ele>
        <time>2012-10-30T08:47:51</time>
      </trkpt>
      <trkpt lat="43.62861" lon="6.22754">
        <ele>512.5</ele>
        <time>2012-10-30T08:48:11</time>
      </trkpt>
      <trkpt lat="43.62878" lon="6.2278">
        <ele>517.09997558594</ele>
        <time>2012-10-30T08:48:28</time>
      </trkpt>
      <trkpt lat="43.62857" lon="6.22795">
        <ele>519.20001220703</ele>
        <time>2012-10-30T08:48:41</time>
      </trkpt>
      <trkpt lat="43.62861" lon="6.22831">
        <ele>516.59997558594</ele>
        <time>2012-10-30T08:49:03</time>
      </trkpt>
      <trkpt lat="43.62864" lon="6.22872">
        <ele>500.29998779297</ele>
        <time>2012-10-30T08:49:29</time>
      </trkpt>
      <trkpt lat="43.62867" lon="6.22879">
        <ele>499.90002441406</ele>
        <time>2012-10-30T08:49:33</time>
      </trkpt>
      <trkpt lat="43.62861" lon="6.22937">
        <ele>533.90002441406</ele>
        <time>2012-10-30T08:50:00</time>
      </trkpt>
      <trkpt lat="43.62871" lon="6.22936">
        <ele>537</ele>
        <time>2012-10-30T08:50:14</time>
      </trkpt>
      <trkpt lat="43.62905" lon="6.22967">
        <ele>546.59997558594</ele>
        <time>2012-10-30T08:50:45</time>
      </trkpt>
      <trkpt lat="43.6292" lon="6.22975">
        <ele>548</ele>
        <time>2012-10-30T08:50:54</time>
      </trkpt>
      <trkpt lat="43.62943" lon="6.22993">
        <ele>550.20001220703</ele>
        <time>2012-10-30T08:51:11</time>
      </trkpt>
      <trkpt lat="43.62958" lon="6.2302">
        <ele>554.5</ele>
        <time>2012-10-30T08:51:45</time>
      </trkpt>
      <trkpt lat="43.62977" lon="6.23076">
        <ele>560.70001220703</ele>
        <time>2012-10-30T08:54:26</time>
      </trkpt>
      <trkpt lat="43.62994" lon="6.23175">
        <ele>558.29998779297</ele>
        <time>2012-10-30T08:55:11</time>
      </trkpt>
      <trkpt lat="43.62988" lon="6.23187">
        <ele>560.09997558594</ele>
        <time>2012-10-30T08:55:17</time>
      </trkpt>
      <trkpt lat="43.62963" lon="6.23219">
        <ele>562.40002441406</ele>
        <time>2012-10-30T08:55:39</time>
      </trkpt>
      <trkpt lat="43.62836" lon="6.23271">
        <ele>566</ele>
        <time>2012-10-30T08:57:20</time>
      </trkpt>
      <trkpt lat="43.62809" lon="6.23357">
        <ele>566.5</ele>
        <time>2012-10-30T08:58:22</time>
      </trkpt>
      <trkpt lat="43.62807" lon="6.23361">
        <ele>566.5</ele>
        <time>2012-10-30T08:58:24</time>
      </trkpt>
      <trkpt lat="43.62784" lon="6.23447">
        <ele>576.79998779297</ele>
        <time>2012-10-30T08:59:26</time>
      </trkpt>
      <trkpt lat="43.62802" lon="6.2348">
        <ele>583.20001220703</ele>
        <time>2012-10-30T08:59:58</time>
      </trkpt>
      <trkpt lat="43.62877" lon="6.23598">
        <ele>588.70001220703</ele>
        <time>2012-10-30T09:01:36</time>
      </trkpt>
      <trkpt lat="43.62885" lon="6.23634">
        <ele>588.5</ele>
        <time>2012-10-30T09:01:56</time>
      </trkpt>
      <trkpt lat="43.62885" lon="6.23637">
        <ele>588.40002441406</ele>
        <time>2012-10-30T09:01:58</time>
      </trkpt>
      <trkpt lat="43.62884" lon="6.23743">
        <ele>595</ele>
        <time>2012-10-30T09:03:17</time>
      </trkpt>
      <trkpt lat="43.62938" lon="6.23852">
        <ele>607.20001220703</ele>
        <time>2012-10-30T09:05:12</time>
      </trkpt>
      <trkpt lat="43.62876" lon="6.2391">
        <ele>665.09997558594</ele>
        <time>2012-10-30T09:07:37</time>
      </trkpt>
      <trkpt lat="43.62817" lon="6.23924">
        <ele>673.09997558594</ele>
        <time>2012-10-30T09:08:13</time>
      </trkpt>
      <trkpt lat="43.62807" lon="6.23948">
        <ele>665.59997558594</ele>
        <time>2012-10-30T09:08:23</time>
      </trkpt>
      <trkpt lat="43.62799" lon="6.23965">
        <ele>654.20001220703</ele>
        <time>2012-10-30T09:08:37</time>
      </trkpt>
      <trkpt lat="43.62791" lon="6.24012">
        <ele>661.29998779297</ele>
        <time>2012-10-30T09:08:59</time>
      </trkpt>
      <trkpt lat="43.62801" lon="6.24042">
        <ele>656.20001220703</ele>
        <time>2012-10-30T09:09:15</time>
      </trkpt>
      <trkpt lat="43.62817" lon="6.24099">
        <ele>657.40002441406</ele>
        <time>2012-10-30T09:09:39</time>
      </trkpt>
      <trkpt lat="43.62817" lon="6.24111">
        <ele>659</ele>
        <time>2012-10-30T09:09:46</time>
      </trkpt>
      <trkpt lat="43.6282" lon="6.24148">
        <ele>658.59997558594</ele>
        <time>2012-10-30T09:10:02</time>
      </trkpt>
      <trkpt lat="43.63037" lon="6.24313">
        <ele>740.20001220703</ele>
        <time>2012-10-30T09:17:57</time>
      </trkpt>
      <trkpt lat="43.6304" lon="6.24321">
        <ele>746.79998779297</ele>
        <time>2012-10-30T09:18:09</time>
      </trkpt>
      <trkpt lat="43.6305" lon="6.24339">
        <ele>763</ele>
        <time>2012-10-30T09:19:07</time>
      </trkpt>
      <trkpt lat="43.6307" lon="6.24403">
        <ele>790.59997558594</ele>
        <time>2012-10-30T09:21:36</time>
      </trkpt>
      <trkpt lat="43.6307" lon="6.2443">
        <ele>790.79998779297</ele>
        <time>2012-10-30T09:22:42</time>
      </trkpt>
      <trkpt lat="43.63069" lon="6.24437">
        <ele>791.79998779297</ele>
        <time>2012-10-30T09:22:52</time>
      </trkpt>
      <trkpt lat="43.63086" lon="6.24462">
        <ele>816.59997558594</ele>
        <time>2012-10-30T09:28:37</time>
      </trkpt>
      <trkpt lat="43.631" lon="6.24476">
        <ele>813.40002441406</ele>
        <time>2012-10-30T09:28:46</time>
      </trkpt>
      <trkpt lat="43.6312" lon="6.245">
        <ele>822.40002441406</ele>
        <time>2012-10-30T09:29:21</time>
      </trkpt>
      <trkpt lat="43.63142" lon="6.24522">
        <ele>822.90002441406</ele>
        <time>2012-10-30T09:29:46</time>
      </trkpt>
      <trkpt lat="43.63148" lon="6.24558">
        <ele>821.59997558594</ele>
        <time>2012-10-30T09:30:09</time>
      </trkpt>
      <trkpt lat="43.63169" lon="6.24565">
        <ele>821.40002441406</ele>
        <time>2012-10-30T09:30:27</time>
      </trkpt>
      <trkpt lat="43.63201" lon="6.2459">
        <ele>829.29998779297</ele>
        <time>2012-10-30T09:30:55</time>
      </trkpt>
      <trkpt lat="43.63216" lon="6.24599">
        <ele>829.70001220703</ele>
        <time>2012-10-30T09:31:11</time>
      </trkpt>
      <trkpt lat="43.63245" lon="6.24617">
        <ele>828.79998779297</ele>
        <time>2012-10-30T09:31:35</time>
      </trkpt>
      <trkpt lat="43.63245" lon="6.24647">
        <ele>829.40002441406</ele>
        <time>2012-10-30T09:32:21</time>
      </trkpt>
      <trkpt lat="43.63246" lon="6.24677">
        <ele>833</ele>
        <time>2012-10-30T09:32:32</time>
      </trkpt>
      <trkpt lat="43.63245" lon="6.24709">
        <ele>832.40002441406</ele>
        <time>2012-10-30T09:32:50</time>
      </trkpt>
      <trkpt lat="43.63235" lon="6.24742">
        <ele>826.59997558594</ele>
        <time>2012-10-30T09:33:05</time>
      </trkpt>
      <trkpt lat="43.63213" lon="6.2478">
        <ele>811.59997558594</ele>
        <time>2012-10-30T09:33:27</time>
      </trkpt>
      <trkpt lat="43.63204" lon="6.24795">
        <ele>816.90002441406</ele>
        <time>2012-10-30T09:33:35</time>
      </trkpt>
      <trkpt lat="43.63203" lon="6.24847">
        <ele>834.20001220703</ele>
        <time>2012-10-30T09:34:00</time>
      </trkpt>
      <trkpt lat="43.63189" lon="6.24877">
        <ele>841.29998779297</ele>
        <time>2012-10-30T09:34:15</time>
      </trkpt>
      <trkpt lat="43.63181" lon="6.2489">
        <ele>840.20001220703</ele>
        <time>2012-10-30T09:34:22</time>
      </trkpt>
      <trkpt lat="43.6315" lon="6.24923">
        <ele>833.59997558594</ele>
        <time>2012-10-30T09:34:51</time>
      </trkpt>
      <trkpt lat="43.63131" lon="6.24961">
        <ele>841.20001220703</ele>
        <time>2012-10-30T09:35:09</time>
      </trkpt>
      <trkpt lat="43.63119" lon="6.24986">
        <ele>844.59997558594</ele>
        <time>2012-10-30T09:35:23</time>
      </trkpt>
      <trkpt lat="43.6311" lon="6.25008">
        <ele>847.5</ele>
        <time>2012-10-30T09:35:35</time>
      </trkpt>
      <trkpt lat="43.63106" lon="6.25035">
        <ele>849.79998779297</ele>
        <time>2012-10-30T09:35:47</time>
      </trkpt>
      <trkpt lat="43.63114" lon="6.25107">
        <ele>844.5</ele>
        <time>2012-10-30T09:36:18</time>
      </trkpt>
      <trkpt lat="43.63116" lon="6.25114">
        <ele>846.79998779297</ele>
        <time>2012-10-30T09:36:22</time>
      </trkpt>
      <trkpt lat="43.6312" lon="6.2519">
        <ele>853.59997558594</ele>
        <time>2012-10-30T09:36:59</time>
      </trkpt>
      <trkpt lat="43.63118" lon="6.25197">
        <ele>853.09997558594</ele>
        <time>2012-10-30T09:37:03</time>
      </trkpt>
      <trkpt lat="43.63097" lon="6.25242">
        <ele>850.29998779297</ele>
        <time>2012-10-30T09:37:29</time>
      </trkpt>
      <trkpt lat="43.63098" lon="6.25272">
        <ele>848.5</ele>
        <time>2012-10-30T09:37:44</time>
      </trkpt>
      <trkpt lat="43.63108" lon="6.25325">
        <ele>871.5</ele>
        <time>2012-10-30T09:38:17</time>
      </trkpt>
      <trkpt lat="43.63113" lon="6.25337">
        <ele>870.90002441406</ele>
        <time>2012-10-30T09:38:23</time>
      </trkpt>
      <trkpt lat="43.63106" lon="6.25383">
        <ele>848.59997558594</ele>
        <time>2012-10-30T09:39:06</time>
      </trkpt>
      <trkpt lat="43.63107" lon="6.25405">
        <ele>857.09997558594</ele>
        <time>2012-10-30T09:39:12</time>
      </trkpt>
      <trkpt lat="43.6311" lon="6.25427">
        <ele>863.90002441406</ele>
        <time>2012-10-30T09:39:24</time>
      </trkpt>
      <trkpt lat="43.63091" lon="6.25465">
        <ele>872.29998779297</ele>
        <time>2012-10-30T09:39:48</time>
      </trkpt>
      <trkpt lat="43.63084" lon="6.25471">
        <ele>863.5</ele>
        <time>2012-10-30T09:39:55</time>
      </trkpt>
      <trkpt lat="43.63069" lon="6.25498">
        <ele>865.79998779297</ele>
        <time>2012-10-30T09:40:13</time>
      </trkpt>
      <trkpt lat="43.63053" lon="6.25505">
        <ele>855.40002441406</ele>
        <time>2012-10-30T09:40:21</time>
      </trkpt>
      <trkpt lat="43.63019" lon="6.25549">
        <ele>867.5</ele>
        <time>2012-10-30T09:40:53</time>
      </trkpt>
      <trkpt lat="43.6301" lon="6.25574">
        <ele>875.29998779297</ele>
        <time>2012-10-30T09:41:05</time>
      </trkpt>
      <trkpt lat="43.63016" lon="6.25599">
        <ele>874</ele>
        <time>2012-10-30T09:41:12</time>
      </trkpt>
      <trkpt lat="43.63009" lon="6.25653">
        <ele>870.09997558594</ele>
        <time>2012-10-30T09:41:41</time>
      </trkpt>
      <trkpt lat="43.62996" lon="6.25685">
        <ele>868</ele>
        <time>2012-10-30T09:41:59</time>
      </trkpt>
      <trkpt lat="43.6299" lon="6.257">
        <ele>866</ele>
        <time>2012-10-30T09:42:07</time>
      </trkpt>
      <trkpt lat="43.62982" lon="6.25753">
        <ele>856</ele>
        <time>2012-10-30T09:42:34</time>
      </trkpt>
      <trkpt lat="43.62987" lon="6.25785">
        <ele>856.5</ele>
        <time>2012-10-30T09:42:44</time>
      </trkpt>
      <trkpt lat="43.6298" lon="6.25805">
        <ele>842.90002441406</ele>
        <time>2012-10-30T09:43:01</time>
      </trkpt>
      <trkpt lat="43.62972" lon="6.25824">
        <ele>840.70001220703</ele>
        <time>2012-10-30T09:43:09</time>
      </trkpt>
      <trkpt lat="43.62953" lon="6.25884">
        <ele>842.59997558594</ele>
        <time>2012-10-30T09:43:44</time>
      </trkpt>
      <trkpt lat="43.62951" lon="6.25904">
        <ele>836.29998779297</ele>
        <time>2012-10-30T09:43:56</time>
      </trkpt>
      <trkpt lat="43.62949" lon="6.25925">
        <ele>836.90002441406</ele>
        <time>2012-10-30T09:44:04</time>
      </trkpt>
      <trkpt lat="43.62927" lon="6.25966">
        <ele>830.5</ele>
        <time>2012-10-30T09:44:31</time>
      </trkpt>
      <trkpt lat="43.62924" lon="6.25982">
        <ele>819.90002441406</ele>
        <time>2012-10-30T09:44:40</time>
      </trkpt>
      <trkpt lat="43.62927" lon="6.26035">
        <ele>824</ele>
        <time>2012-10-30T09:45:03</time>
      </trkpt>
      <trkpt lat="43.62918" lon="6.26075">
        <ele>817.90002441406</ele>
        <time>2012-10-30T09:45:24</time>
      </trkpt>
      <trkpt lat="43.62901" lon="6.26112">
        <ele>815</ele>
        <time>2012-10-30T09:45:42</time>
      </trkpt>
      <trkpt lat="43.62881" lon="6.26146">
        <ele>810.5</ele>
        <time>2012-10-30T09:46:00</time>
      </trkpt>
      <trkpt lat="43.62871" lon="6.2616">
        <ele>807.29998779297</ele>
        <time>2012-10-30T09:46:11</time>
      </trkpt>
      <trkpt lat="43.62842" lon="6.26189">
        <ele>801.20001220703</ele>
        <time>2012-10-30T09:46:32</time>
      </trkpt>
      <trkpt lat="43.62818" lon="6.26203">
        <ele>795</ele>
        <time>2012-10-30T09:46:50</time>
      </trkpt>
      <trkpt lat="43.62784" lon="6.26219">
        <ele>791.40002441406</ele>
        <time>2012-10-30T09:47:11</time>
      </trkpt>
      <trkpt lat="43.6277" lon="6.26228">
        <ele>791.20001220703</ele>
        <time>2012-10-30T09:47:21</time>
      </trkpt>
      <trkpt lat="43.62746" lon="6.26258">
        <ele>783.29998779297</ele>
        <time>2012-10-30T09:47:42</time>
      </trkpt>
      <trkpt lat="43.62732" lon="6.26278">
        <ele>779.09997558594</ele>
        <time>2012-10-30T09:47:56</time>
      </trkpt>
      <trkpt lat="43.62708" lon="6.26306">
        <ele>767.70001220703</ele>
        <time>2012-10-30T09:48:18</time>
      </trkpt>
      <trkpt lat="43.62699" lon="6.26339">
        <ele>762.79998779297</ele>
        <time>2012-10-30T09:48:37</time>
      </trkpt>
      <trkpt lat="43.62693" lon="6.26374">
        <ele>762.5</ele>
        <time>2012-10-30T09:48:54</time>
      </trkpt>
      <trkpt lat="43.62695" lon="6.26415">
        <ele>768</ele>
        <time>2012-10-30T09:49:13</time>
      </trkpt>
      <trkpt lat="43.62693" lon="6.26464">
        <ele>754.79998779297</ele>
        <time>2012-10-30T09:49:39</time>
      </trkpt>
      <trkpt lat="43.62689" lon="6.2647">
        <ele>746.79998779297</ele>
        <time>2012-10-30T09:49:44</time>
      </trkpt>
      <trkpt lat="43.62682" lon="6.26536">
        <ele>759.20001220703</ele>
        <time>2012-10-30T09:50:15</time>
      </trkpt>
      <trkpt lat="43.62681" lon="6.26558">
        <ele>761.09997558594</ele>
        <time>2012-10-30T09:50:23</time>
      </trkpt>
      <trkpt lat="43.62699" lon="6.26582">
        <ele>771.40002441406</ele>
        <time>2012-10-30T09:50:40</time>
      </trkpt>
      <trkpt lat="43.62731" lon="6.2659">
        <ele>762.79998779297</ele>
        <time>2012-10-30T09:51:03</time>
      </trkpt>
      <trkpt lat="43.62754" lon="6.26594">
        <ele>765.90002441406</ele>
        <time>2012-10-30T09:51:18</time>
      </trkpt>
      <trkpt lat="43.62788" lon="6.26596">
        <ele>758</ele>
        <time>2012-10-30T09:51:39</time>
      </trkpt>
      <trkpt lat="43.62816" lon="6.26574">
        <ele>750.90002441406</ele>
        <time>2012-10-30T09:51:59</time>
      </trkpt>
      <trkpt lat="43.62832" lon="6.2657">
        <ele>751.5</ele>
        <time>2012-10-30T09:52:10</time>
      </trkpt>
      <trkpt lat="43.62866" lon="6.26575">
        <ele>750.70001220703</ele>
        <time>2012-10-30T09:52:37</time>
      </trkpt>
      <trkpt lat="43.62869" lon="6.26607">
        <ele>750</ele>
        <time>2012-10-30T09:52:48</time>
      </trkpt>
      <trkpt lat="43.62857" lon="6.26638">
        <ele>759.90002441406</ele>
        <time>2012-10-30T09:53:05</time>
      </trkpt>
      <trkpt lat="43.62852" lon="6.26658">
        <ele>764.20001220703</ele>
        <time>2012-10-30T09:53:16</time>
      </trkpt>
      <trkpt lat="43.62867" lon="6.26738">
        <ele>757.09997558594</ele>
        <time>2012-10-30T09:53:53</time>
      </trkpt>
      <trkpt lat="43.6287" lon="6.26754">
        <ele>755.20001220703</ele>
        <time>2012-10-30T09:53:58</time>
      </trkpt>
      <trkpt lat="43.62865" lon="6.2681">
        <ele>765.09997558594</ele>
        <time>2012-10-30T09:54:21</time>
      </trkpt>
      <trkpt lat="43.62854" lon="6.26835">
        <ele>764.90002441406</ele>
        <time>2012-10-30T09:54:36</time>
      </trkpt>
      <trkpt lat="43.62846" lon="6.26856">
        <ele>767.79998779297</ele>
        <time>2012-10-30T09:54:51</time>
      </trkpt>
      <trkpt lat="43.62861" lon="6.26924">
        <ele>769.79998779297</ele>
        <time>2012-10-30T09:55:27</time>
      </trkpt>
      <trkpt lat="43.62866" lon="6.26931">
        <ele>768.5</ele>
        <time>2012-10-30T09:55:32</time>
      </trkpt>
      <trkpt lat="43.62879" lon="6.26968">
        <ele>771.90002441406</ele>
        <time>2012-10-30T09:55:50</time>
      </trkpt>
      <trkpt lat="43.62884" lon="6.26999">
        <ele>782.09997558594</ele>
        <time>2012-10-30T09:56:06</time>
      </trkpt>
      <trkpt lat="43.62891" lon="6.27037">
        <ele>782.29998779297</ele>
        <time>2012-10-30T09:56:24</time>
      </trkpt>
      <trkpt lat="43.62907" lon="6.2708">
        <ele>789.09997558594</ele>
        <time>2012-10-30T09:56:54</time>
      </trkpt>
      <trkpt lat="43.62906" lon="6.27083">
        <ele>787.59997558594</ele>
        <time>2012-10-30T09:56:57</time>
      </trkpt>
      <trkpt lat="43.62913" lon="6.27129">
        <ele>787.09997558594</ele>
        <time>2012-10-30T09:57:23</time>
      </trkpt>
      <trkpt lat="43.62924" lon="6.27179">
        <ele>786.70001220703</ele>
        <time>2012-10-30T09:57:48</time>
      </trkpt>
      <trkpt lat="43.62926" lon="6.27221">
        <ele>786.20001220703</ele>
        <time>2012-10-30T09:58:10</time>
      </trkpt>
      <trkpt lat="43.62927" lon="6.27258">
        <ele>784.90002441406</ele>
        <time>2012-10-30T09:58:27</time>
      </trkpt>
      <trkpt lat="43.6294" lon="6.27277">
        <ele>794.5</ele>
        <time>2012-10-30T09:58:38</time>
      </trkpt>
      <trkpt lat="43.62945" lon="6.27312">
        <ele>792.5</ele>
        <time>2012-10-30T09:59:00</time>
      </trkpt>
      <trkpt lat="43.62938" lon="6.27359">
        <ele>801.29998779297</ele>
        <time>2012-10-30T09:59:49</time>
      </trkpt>
      <trkpt lat="43.62934" lon="6.27409">
        <ele>806.29998779297</ele>
        <time>2012-10-30T10:00:47</time>
      </trkpt>
      <trkpt lat="43.6293" lon="6.2743">
        <ele>795</ele>
        <time>2012-10-30T10:01:02</time>
      </trkpt>
      <trkpt lat="43.62923" lon="6.27457">
        <ele>809</ele>
        <time>2012-10-30T10:01:14</time>
      </trkpt>
      <trkpt lat="43.62904" lon="6.2748">
        <ele>810.79998779297</ele>
        <time>2012-10-30T10:01:40</time>
      </trkpt>
      <trkpt lat="43.62898" lon="6.2751">
        <ele>807.40002441406</ele>
        <time>2012-10-30T10:01:59</time>
      </trkpt>
      <trkpt lat="43.62888" lon="6.2758">
        <ele>827.79998779297</ele>
        <time>2012-10-30T10:02:31</time>
      </trkpt>
      <trkpt lat="43.62884" lon="6.2759">
        <ele>833.29998779297</ele>
        <time>2012-10-30T10:02:35</time>
      </trkpt>
      <trkpt lat="43.62869" lon="6.27624">
        <ele>834.5</ele>
        <time>2012-10-30T10:03:03</time>
      </trkpt>
      <trkpt lat="43.62853" lon="6.27645">
        <ele>840.59997558594</ele>
        <time>2012-10-30T10:03:14</time>
      </trkpt>
      <trkpt lat="43.62857" lon="6.27685">
        <ele>847.70001220703</ele>
        <time>2012-10-30T10:03:45</time>
      </trkpt>
      <trkpt lat="43.62869" lon="6.27708">
        <ele>838.40002441406</ele>
        <time>2012-10-30T10:04:00</time>
      </trkpt>
      <trkpt lat="43.62868" lon="6.27739">
        <ele>848.40002441406</ele>
        <time>2012-10-30T10:04:21</time>
      </trkpt>
      <trkpt lat="43.62846" lon="6.27773">
        <ele>851.09997558594</ele>
        <time>2012-10-30T10:04:36</time>
      </trkpt>
      <trkpt lat="43.6284" lon="6.27796">
        <ele>855.40002441406</ele>
        <time>2012-10-30T10:04:57</time>
      </trkpt>
      <trkpt lat="43.62827" lon="6.27819">
        <ele>841</ele>
        <time>2012-10-30T10:05:11</time>
      </trkpt>
      <trkpt lat="43.62806" lon="6.27845">
        <ele>854.90002441406</ele>
        <time>2012-10-30T10:05:35</time>
      </trkpt>
      <trkpt lat="43.6279" lon="6.27886">
        <ele>849.79998779297</ele>
        <time>2012-10-30T10:06:02</time>
      </trkpt>
      <trkpt lat="43.62793" lon="6.27929">
        <ele>857.79998779297</ele>
        <time>2012-10-30T10:06:27</time>
      </trkpt>
      <trkpt lat="43.62792" lon="6.27955">
        <ele>864.09997558594</ele>
        <time>2012-10-30T10:06:48</time>
      </trkpt>
      <trkpt lat="43.62773" lon="6.27983">
        <ele>878.70001220703</ele>
        <time>2012-10-30T10:07:09</time>
      </trkpt>
      <trkpt lat="43.62759" lon="6.27994">
        <ele>879.59997558594</ele>
        <time>2012-10-30T10:07:22</time>
      </trkpt>
      <trkpt lat="43.62749" lon="6.28018">
        <ele>883.40002441406</ele>
        <time>2012-10-30T10:07:35</time>
      </trkpt>
      <trkpt lat="43.62722" lon="6.28039">
        <ele>874.09997558594</ele>
        <time>2012-10-30T10:07:52</time>
      </trkpt>
      <trkpt lat="43.62715" lon="6.28104">
        <ele>891.40002441406</ele>
        <time>2012-10-30T10:08:24</time>
      </trkpt>
      <trkpt lat="43.6271" lon="6.28117">
        <ele>891.20001220703</ele>
        <time>2012-10-30T10:08:31</time>
      </trkpt>
      <trkpt lat="43.62711" lon="6.28164">
        <ele>888.59997558594</ele>
        <time>2012-10-30T10:08:52</time>
      </trkpt>
      <trkpt lat="43.62709" lon="6.28186">
        <ele>888.29998779297</ele>
        <time>2012-10-30T10:09:05</time>
      </trkpt>
      <trkpt lat="43.62746" lon="6.28221">
        <ele>890.5</ele>
        <time>2012-10-30T10:09:31</time>
      </trkpt>
      <trkpt lat="43.6275" lon="6.28236">
        <ele>891</ele>
        <time>2012-10-30T10:09:41</time>
      </trkpt>
      <trkpt lat="43.62762" lon="6.28261">
        <ele>890.29998779297</ele>
        <time>2012-10-30T10:09:57</time>
      </trkpt>
      <trkpt lat="43.62752" lon="6.28313">
        <ele>893</ele>
        <time>2012-10-30T10:10:19</time>
      </trkpt>
      <trkpt lat="43.62748" lon="6.28348">
        <ele>891.29998779297</ele>
        <time>2012-10-30T10:10:41</time>
      </trkpt>
      <trkpt lat="43.6274" lon="6.284">
        <ele>899.09997558594</ele>
        <time>2012-10-30T10:11:05</time>
      </trkpt>
      <trkpt lat="43.62732" lon="6.28439">
        <ele>896.29998779297</ele>
        <time>2012-10-30T10:11:23</time>
      </trkpt>
      <trkpt lat="43.62731" lon="6.28449">
        <ele>899.40002441406</ele>
        <time>2012-10-30T10:11:29</time>
      </trkpt>
      <trkpt lat="43.62757" lon="6.28486">
        <ele>906.79998779297</ele>
        <time>2012-10-30T10:11:53</time>
      </trkpt>
      <trkpt lat="43.62757" lon="6.28537">
        <ele>917</ele>
        <time>2012-10-30T10:12:17</time>
      </trkpt>
      <trkpt lat="43.62762" lon="6.28569">
        <ele>915.90002441406</ele>
        <time>2012-10-30T10:12:34</time>
      </trkpt>
      <trkpt lat="43.62777" lon="6.28596">
        <ele>912.5</ele>
        <time>2012-10-30T10:12:50</time>
      </trkpt>
      <trkpt lat="43.62792" lon="6.28611">
        <ele>918.5</ele>
        <time>2012-10-30T10:13:11</time>
      </trkpt>
      <trkpt lat="43.62802" lon="6.28643">
        <ele>924.79998779297</ele>
        <time>2012-10-30T10:13:27</time>
      </trkpt>
      <trkpt lat="43.62807" lon="6.28679">
        <ele>916.59997558594</ele>
        <time>2012-10-30T10:13:48</time>
      </trkpt>
      <trkpt lat="43.62816" lon="6.28703">
        <ele>919.5</ele>
        <time>2012-10-30T10:14:09</time>
      </trkpt>
      <trkpt lat="43.62836" lon="6.28726">
        <ele>925.29998779297</ele>
        <time>2012-10-30T10:14:24</time>
      </trkpt>
      <trkpt lat="43.62864" lon="6.2873">
        <ele>927.59997558594</ele>
        <time>2012-10-30T10:14:45</time>
      </trkpt>
      <trkpt lat="43.62905" lon="6.2874">
        <ele>933.20001220703</ele>
        <time>2012-10-30T10:15:14</time>
      </trkpt>
      <trkpt lat="43.62921" lon="6.28753">
        <ele>933.90002441406</ele>
        <time>2012-10-30T10:15:28</time>
      </trkpt>
      <trkpt lat="43.62938" lon="6.2877">
        <ele>930.20001220703</ele>
        <time>2012-10-30T10:15:44</time>
      </trkpt>
      <trkpt lat="43.62957" lon="6.28784">
        <ele>932.09997558594</ele>
        <time>2012-10-30T10:15:58</time>
      </trkpt>
      <trkpt lat="43.62987" lon="6.28822">
        <ele>942.70001220703</ele>
        <time>2012-10-30T10:16:25</time>
      </trkpt>
      <trkpt lat="43.63016" lon="6.28844">
        <ele>935.29998779297</ele>
        <time>2012-10-30T10:16:49</time>
      </trkpt>
      <trkpt lat="43.63041" lon="6.2885">
        <ele>943.20001220703</ele>
        <time>2012-10-30T10:17:06</time>
      </trkpt>
      <trkpt lat="43.63049" lon="6.2886">
        <ele>944.40002441406</ele>
        <time>2012-10-30T10:17:14</time>
      </trkpt>
      <trkpt lat="43.63067" lon="6.28881">
        <ele>945.79998779297</ele>
        <time>2012-10-30T10:17:34</time>
      </trkpt>
      <trkpt lat="43.63097" lon="6.28901">
        <ele>949.09997558594</ele>
        <time>2012-10-30T10:17:52</time>
      </trkpt>
      <trkpt lat="43.6313" lon="6.289">
        <ele>948</ele>
        <time>2012-10-30T10:18:19</time>
      </trkpt>
      <trkpt lat="43.63136" lon="6.28898">
        <ele>945.20001220703</ele>
        <time>2012-10-30T10:18:23</time>
      </trkpt>
      <trkpt lat="43.63179" lon="6.28911">
        <ele>959.59997558594</ele>
        <time>2012-10-30T10:18:57</time>
      </trkpt>
      <trkpt lat="43.6318" lon="6.28932">
        <ele>971.79998779297</ele>
        <time>2012-10-30T10:19:07</time>
      </trkpt>
      <trkpt lat="43.63191" lon="6.28986">
        <ele>957.79998779297</ele>
        <time>2012-10-30T10:19:33</time>
      </trkpt>
      <trkpt lat="43.63211" lon="6.29055">
        <ele>957.40002441406</ele>
        <time>2012-10-30T10:20:05</time>
      </trkpt>
      <trkpt lat="43.63214" lon="6.29058">
        <ele>958.79998779297</ele>
        <time>2012-10-30T10:20:07</time>
      </trkpt>
      <trkpt lat="43.63239" lon="6.29095">
        <ele>950.09997558594</ele>
        <time>2012-10-30T10:20:36</time>
      </trkpt>
      <trkpt lat="43.63258" lon="6.29111">
        <ele>955.29998779297</ele>
        <time>2012-10-30T10:20:46</time>
      </trkpt>
      <trkpt lat="43.6329" lon="6.29119">
        <ele>958.5</ele>
        <time>2012-10-30T10:21:10</time>
      </trkpt>
      <trkpt lat="43.63298" lon="6.29101">
        <ele>959.29998779297</ele>
        <time>2012-10-30T10:21:34</time>
      </trkpt>
      <trkpt lat="43.63304" lon="6.29066">
        <ele>960.40002441406</ele>
        <time>2012-10-30T10:22:12</time>
      </trkpt>
      <trkpt lat="43.63309" lon="6.29033">
        <ele>963.29998779297</ele>
        <time>2012-10-30T10:22:30</time>
      </trkpt>
      <trkpt lat="43.63324" lon="6.29">
        <ele>963.5</ele>
        <time>2012-10-30T10:22:50</time>
      </trkpt>
      <trkpt lat="43.63314" lon="6.28973">
        <ele>964.90002441406</ele>
        <time>2012-10-30T10:23:09</time>
      </trkpt>
      <trkpt lat="43.63308" lon="6.28937">
        <ele>969.09997558594</ele>
        <time>2012-10-30T10:23:29</time>
      </trkpt>
      <trkpt lat="43.63306" lon="6.28917">
        <ele>972.09997558594</ele>
        <time>2012-10-30T10:23:42</time>
      </trkpt>
      <trkpt lat="43.63311" lon="6.28872">
        <ele>968.20001220703</ele>
        <time>2012-10-30T10:24:07</time>
      </trkpt>
      <trkpt lat="43.63326" lon="6.28846">
        <ele>974.20001220703</ele>
        <time>2012-10-30T10:24:26</time>
      </trkpt>
      <trkpt lat="43.63346" lon="6.28828">
        <ele>976.90002441406</ele>
        <time>2012-10-30T10:24:44</time>
      </trkpt>
      <trkpt lat="43.63356" lon="6.28795">
        <ele>982.19995117188</ele>
        <time>2012-10-30T10:25:02</time>
      </trkpt>
      <trkpt lat="43.63376" lon="6.28759">
        <ele>984.59997558594</ele>
        <time>2012-10-30T10:25:24</time>
      </trkpt>
      <trkpt lat="43.6337" lon="6.28738">
        <ele>986.09997558594</ele>
        <time>2012-10-30T10:25:36</time>
      </trkpt>
      <trkpt lat="43.63355" lon="6.28693">
        <ele>982.19995117188</ele>
        <time>2012-10-30T10:26:03</time>
      </trkpt>
      <trkpt lat="43.63363" lon="6.28678">
        <ele>984</ele>
        <time>2012-10-30T10:26:13</time>
      </trkpt>
      <trkpt lat="43.63376" lon="6.28648">
        <ele>987.90002441406</ele>
        <time>2012-10-30T10:26:33</time>
      </trkpt>
      <trkpt lat="43.63387" lon="6.28625">
        <ele>989.30004882812</ele>
        <time>2012-10-30T10:26:51</time>
      </trkpt>
      <trkpt lat="43.6341" lon="6.28606">
        <ele>990.40002441406</ele>
        <time>2012-10-30T10:27:11</time>
      </trkpt>
      <trkpt lat="43.63424" lon="6.28588">
        <ele>991.19995117188</ele>
        <time>2012-10-30T10:27:25</time>
      </trkpt>
      <trkpt lat="43.63446" lon="6.28569">
        <ele>995.80004882812</ele>
        <time>2012-10-30T10:27:44</time>
      </trkpt>
      <trkpt lat="43.6346" lon="6.28531">
        <ele>997</ele>
        <time>2012-10-30T10:28:07</time>
      </trkpt>
      <trkpt lat="43.63461" lon="6.28514">
        <ele>999.30004882812</ele>
        <time>2012-10-30T10:28:17</time>
      </trkpt>
      <trkpt lat="43.63432" lon="6.2848">
        <ele>999.59997558594</ele>
        <time>2012-10-30T10:28:41</time>
      </trkpt>
      <trkpt lat="43.63426" lon="6.28445">
        <ele>995.40002441406</ele>
        <time>2012-10-30T10:29:34</time>
      </trkpt>
      <trkpt lat="43.63435" lon="6.28405">
        <ele>997.19995117188</ele>
        <time>2012-10-30T10:29:51</time>
      </trkpt>
      <trkpt lat="43.63444" lon="6.28394">
        <ele>996.59997558594</ele>
        <time>2012-10-30T10:29:59</time>
      </trkpt>
      <trkpt lat="43.6347" lon="6.28384">
        <ele>995.69995117188</ele>
        <time>2012-10-30T10:30:20</time>
      </trkpt>
      <trkpt lat="43.6349" lon="6.28379">
        <ele>995.40002441406</ele>
        <time>2012-10-30T10:30:40</time>
      </trkpt>
      <trkpt lat="43.63514" lon="6.28354">
        <ele>994.09997558594</ele>
        <time>2012-10-30T10:31:03</time>
      </trkpt>
      <trkpt lat="43.6353" lon="6.28337">
        <ele>998.59997558594</ele>
        <time>2012-10-30T10:31:18</time>
      </trkpt>
      <trkpt lat="43.63539" lon="6.28305">
        <ele>998.30004882812</ele>
        <time>2012-10-30T10:31:35</time>
      </trkpt>
      <trkpt lat="43.63543" lon="6.28279">
        <ele>988.69995117188</ele>
        <time>2012-10-30T10:31:47</time>
      </trkpt>
      <trkpt lat="43.63547" lon="6.2825">
        <ele>990.59997558594</ele>
        <time>2012-10-30T10:32:05</time>
      </trkpt>
      <trkpt lat="43.63578" lon="6.28207">
        <ele>1002.5</ele>
        <time>2012-10-30T10:32:37</time>
      </trkpt>
      <trkpt lat="43.63594" lon="6.2818">
        <ele>1008.5999755859</ele>
        <time>2012-10-30T10:33:03</time>
      </trkpt>
      <trkpt lat="43.63606" lon="6.28185">
        <ele>1006.1999511719</ele>
        <time>2012-10-30T10:33:14</time>
      </trkpt>
      <trkpt lat="43.63634" lon="6.2817">
        <ele>1010.6999511719</ele>
        <time>2012-10-30T10:33:34</time>
      </trkpt>
      <trkpt lat="43.63655" lon="6.28169">
        <ele>1009.5999755859</ele>
        <time>2012-10-30T10:33:48</time>
      </trkpt>
      <trkpt lat="43.637" lon="6.28155">
        <ele>1012.8000488281</ele>
        <time>2012-10-30T10:34:22</time>
      </trkpt>
      <trkpt lat="43.63726" lon="6.28148">
        <ele>1022.3000488281</ele>
        <time>2012-10-30T10:34:43</time>
      </trkpt>
      <trkpt lat="43.6374" lon="6.28149">
        <ele>1012.4000244141</ele>
        <time>2012-10-30T10:34:53</time>
      </trkpt>
      <trkpt lat="43.63756" lon="6.28154">
        <ele>1006.6999511719</ele>
        <time>2012-10-30T10:35:05</time>
      </trkpt>
      <trkpt lat="43.63797" lon="6.28123">
        <ele>1034</ele>
        <time>2012-10-30T10:35:52</time>
      </trkpt>
      <trkpt lat="43.63812" lon="6.28115">
        <ele>1036.8000488281</ele>
        <time>2012-10-30T10:36:07</time>
      </trkpt>
      <trkpt lat="43.63825" lon="6.2811">
        <ele>1023.4000244141</ele>
        <time>2012-10-30T10:36:21</time>
      </trkpt>
      <trkpt lat="43.63857" lon="6.28085">
        <ele>1039.5999755859</ele>
        <time>2012-10-30T10:36:55</time>
      </trkpt>
      <trkpt lat="43.63864" lon="6.28051">
        <ele>1044.9000244141</ele>
        <time>2012-10-30T10:37:23</time>
      </trkpt>
      <trkpt lat="43.63868" lon="6.28018">
        <ele>1054.6999511719</ele>
        <time>2012-10-30T10:37:47</time>
      </trkpt>
      <trkpt lat="43.63899" lon="6.27982">
        <ele>1057.4000244141</ele>
        <time>2012-10-30T10:39:56</time>
      </trkpt>
      <trkpt lat="43.63927" lon="6.27982">
        <ele>1055.3000488281</ele>
        <time>2012-10-30T10:40:42</time>
      </trkpt>
      <trkpt lat="43.63949" lon="6.27986">
        <ele>1061.5</ele>
        <time>2012-10-30T10:41:04</time>
      </trkpt>
      <trkpt lat="43.63964" lon="6.27986">
        <ele>1071.0999755859</ele>
        <time>2012-10-30T10:41:20</time>
      </trkpt>
      <trkpt lat="43.63993" lon="6.27995">
        <ele>1071.1999511719</ele>
        <time>2012-10-30T10:41:47</time>
      </trkpt>
      <trkpt lat="43.64019" lon="6.27974">
        <ele>1062.5999755859</ele>
        <time>2012-10-30T10:43:16</time>
      </trkpt>
      <trkpt lat="43.64025" lon="6.2796">
        <ele>1060</ele>
        <time>2012-10-30T10:43:28</time>
      </trkpt>
      <trkpt lat="43.6404" lon="6.27933">
        <ele>1059.6999511719</ele>
        <time>2012-10-30T10:43:46</time>
      </trkpt>
      <trkpt lat="43.64047" lon="6.27904">
        <ele>1051.5999755859</ele>
        <time>2012-10-30T10:44:13</time>
      </trkpt>
      <trkpt lat="43.64067" lon="6.27866">
        <ele>1051.9000244141</ele>
        <time>2012-10-30T10:44:36</time>
      </trkpt>
      <trkpt lat="43.6408" lon="6.27861">
        <ele>1046.1999511719</ele>
        <time>2012-10-30T10:44:46</time>
      </trkpt>
      <trkpt lat="43.64097" lon="6.27834">
        <ele>1037.6999511719</ele>
        <time>2012-10-30T10:45:05</time>
      </trkpt>
      <trkpt lat="43.6412" lon="6.27819">
        <ele>1037.6999511719</ele>
        <time>2012-10-30T10:45:21</time>
      </trkpt>
      <trkpt lat="43.64149" lon="6.27782">
        <ele>1038.8000488281</ele>
        <time>2012-10-30T10:45:48</time>
      </trkpt>
      <trkpt lat="43.64155" lon="6.27751">
        <ele>1040.8000488281</ele>
        <time>2012-10-30T10:46:03</time>
      </trkpt>
      <trkpt lat="43.64176" lon="6.27725">
        <ele>1039.3000488281</ele>
        <time>2012-10-30T10:46:24</time>
      </trkpt>
      <trkpt lat="43.64184" lon="6.27704">
        <ele>1044.9000244141</ele>
        <time>2012-10-30T10:46:33</time>
      </trkpt>
      <trkpt lat="43.64202" lon="6.27677">
        <ele>1039.3000488281</ele>
        <time>2012-10-30T10:46:54</time>
      </trkpt>
      <trkpt lat="43.64222" lon="6.27664">
        <ele>1036.6999511719</ele>
        <time>2012-10-30T10:47:12</time>
      </trkpt>
      <trkpt lat="43.64242" lon="6.27623">
        <ele>1033.9000244141</ele>
        <time>2012-10-30T10:47:36</time>
      </trkpt>
      <trkpt lat="43.64255" lon="6.2761">
        <ele>1034.9000244141</ele>
        <time>2012-10-30T10:47:50</time>
      </trkpt>
      <trkpt lat="43.64266" lon="6.27585">
        <ele>1036.0999755859</ele>
        <time>2012-10-30T10:48:06</time>
      </trkpt>
      <trkpt lat="43.64281" lon="6.27541">
        <ele>1046.0999755859</ele>
        <time>2012-10-30T10:48:37</time>
      </trkpt>
      <trkpt lat="43.64286" lon="6.27519">
        <ele>1046.4000244141</ele>
        <time>2012-10-30T10:48:51</time>
      </trkpt>
      <trkpt lat="43.64302" lon="6.27488">
        <ele>1047.3000488281</ele>
        <time>2012-10-30T10:49:11</time>
      </trkpt>
      <trkpt lat="43.64326" lon="6.27472">
        <ele>1047.1999511719</ele>
        <time>2012-10-30T10:49:29</time>
      </trkpt>
      <trkpt lat="43.64346" lon="6.27437">
        <ele>1054</ele>
        <time>2012-10-30T10:49:52</time>
      </trkpt>
      <trkpt lat="43.64357" lon="6.27413">
        <ele>1060.1999511719</ele>
        <time>2012-10-30T10:50:11</time>
      </trkpt>
      <trkpt lat="43.64372" lon="6.27403">
        <ele>1063.8000488281</ele>
        <time>2012-10-30T10:50:25</time>
      </trkpt>
      <trkpt lat="43.64391" lon="6.27399">
        <ele>1063</ele>
        <time>2012-10-30T10:50:44</time>
      </trkpt>
      <trkpt lat="43.64412" lon="6.27373">
        <ele>1063.9000244141</ele>
        <time>2012-10-30T10:51:13</time>
      </trkpt>
      <trkpt lat="43.64438" lon="6.27358">
        <ele>1069</ele>
        <time>2012-10-30T10:51:50</time>
      </trkpt>
      <trkpt lat="43.64443" lon="6.27331">
        <ele>1069.0999755859</ele>
        <time>2012-10-30T10:52:21</time>
      </trkpt>
      <trkpt lat="43.6445" lon="6.27311">
        <ele>1072.6999511719</ele>
        <time>2012-10-30T10:52:36</time>
      </trkpt>
      <trkpt lat="43.64456" lon="6.27269">
        <ele>1074.0999755859</ele>
        <time>2012-10-30T10:53:03</time>
      </trkpt>
      <trkpt lat="43.64502" lon="6.27231">
        <ele>1065.4000244141</ele>
        <time>2012-10-30T10:55:38</time>
      </trkpt>
      <trkpt lat="43.64517" lon="6.27227">
        <ele>1066.3000488281</ele>
        <time>2012-10-30T10:55:55</time>
      </trkpt>
      <trkpt lat="43.64539" lon="6.27205">
        <ele>1065.9000244141</ele>
        <time>2012-10-30T10:56:39</time>
      </trkpt>
      <trkpt lat="43.64571" lon="6.27206">
        <ele>1058.4000244141</ele>
        <time>2012-10-30T10:57:23</time>
      </trkpt>
      <trkpt lat="43.64607" lon="6.27203">
        <ele>1044.6999511719</ele>
        <time>2012-10-30T10:57:51</time>
      </trkpt>
      <trkpt lat="43.64604" lon="6.2719">
        <ele>1049.8000488281</ele>
        <time>2012-10-30T10:57:58</time>
      </trkpt>
      <trkpt lat="43.64626" lon="6.27197">
        <ele>1035</ele>
        <time>2012-10-30T10:58:29</time>
      </trkpt>
      <trkpt lat="43.64641" lon="6.27176">
        <ele>1027</ele>
        <time>2012-10-30T10:58:50</time>
      </trkpt>
      <trkpt lat="43.64654" lon="6.27166">
        <ele>1026.9000244141</ele>
        <time>2012-10-30T10:59:04</time>
      </trkpt>
      <trkpt lat="43.64681" lon="6.27124">
        <ele>1032.9000244141</ele>
        <time>2012-10-30T10:59:48</time>
      </trkpt>
      <trkpt lat="43.64716" lon="6.27087">
        <ele>1025.0999755859</ele>
        <time>2012-10-30T11:00:23</time>
      </trkpt>
      <trkpt lat="43.64724" lon="6.27082">
        <ele>1026.1999511719</ele>
        <time>2012-10-30T11:00:29</time>
      </trkpt>
      <trkpt lat="43.64749" lon="6.2707">
        <ele>1025.5999755859</ele>
        <time>2012-10-30T11:01:03</time>
      </trkpt>
      <trkpt lat="43.64771" lon="6.27067">
        <ele>1022.5</ele>
        <time>2012-10-30T11:01:15</time>
      </trkpt>
      <trkpt lat="43.64799" lon="6.27033">
        <ele>1017.1999511719</ele>
        <time>2012-10-30T11:01:46</time>
      </trkpt>
      <trkpt lat="43.64818" lon="6.27009">
        <ele>1019.3000488281</ele>
        <time>2012-10-30T11:02:07</time>
      </trkpt>
      <trkpt lat="43.6482" lon="6.27001">
        <ele>1020.6999511719</ele>
        <time>2012-10-30T11:02:19</time>
      </trkpt>
      <trkpt lat="43.64842" lon="6.26983">
        <ele>1007.3000488281</ele>
        <time>2012-10-30T11:02:39</time>
      </trkpt>
      <trkpt lat="43.6486" lon="6.26932">
        <ele>1023.8000488281</ele>
        <time>2012-10-30T11:03:16</time>
      </trkpt>
      <trkpt lat="43.64867" lon="6.2691">
        <ele>1021.8000488281</ele>
        <time>2012-10-30T11:03:34</time>
      </trkpt>
      <trkpt lat="43.64878" lon="6.26873">
        <ele>1025.4000244141</ele>
        <time>2012-10-30T11:04:28</time>
      </trkpt>
      <trkpt lat="43.64884" lon="6.26842">
        <ele>1034.9000244141</ele>
        <time>2012-10-30T11:04:48</time>
      </trkpt>
      <trkpt lat="43.64896" lon="6.26811">
        <ele>1028.3000488281</ele>
        <time>2012-10-30T11:05:09</time>
      </trkpt>
      <trkpt lat="43.64901" lon="6.26787">
        <ele>1023.0999755859</ele>
        <time>2012-10-30T11:05:26</time>
      </trkpt>
      <trkpt lat="43.64911" lon="6.26745">
        <ele>1013.4000244141</ele>
        <time>2012-10-30T11:05:46</time>
      </trkpt>
      <trkpt lat="43.64921" lon="6.26696">
        <ele>1011.6999511719</ele>
        <time>2012-10-30T11:06:12</time>
      </trkpt>
      <trkpt lat="43.64927" lon="6.26683">
        <ele>1010.6999511719</ele>
        <time>2012-10-30T11:06:20</time>
      </trkpt>
      <trkpt lat="43.6494" lon="6.26651">
        <ele>1009</ele>
        <time>2012-10-30T11:06:38</time>
      </trkpt>
      <trkpt lat="43.64953" lon="6.26623">
        <ele>1011.0999755859</ele>
        <time>2012-10-30T11:07:04</time>
      </trkpt>
      <trkpt lat="43.64965" lon="6.26592">
        <ele>1013.4000244141</ele>
        <time>2012-10-30T11:07:21</time>
      </trkpt>
      <trkpt lat="43.64988" lon="6.2656">
        <ele>1003.8000488281</ele>
        <time>2012-10-30T11:07:50</time>
      </trkpt>
      <trkpt lat="43.64992" lon="6.2653">
        <ele>1003.3000488281</ele>
        <time>2012-10-30T11:08:12</time>
      </trkpt>
      <trkpt lat="43.64995" lon="6.26508">
        <ele>998.69995117188</ele>
        <time>2012-10-30T11:08:35</time>
      </trkpt>
      <trkpt lat="43.65006" lon="6.26476">
        <ele>995.09997558594</ele>
        <time>2012-10-30T11:09:00</time>
      </trkpt>
      <trkpt lat="43.65014" lon="6.26434">
        <ele>988.5</ele>
        <time>2012-10-30T11:09:25</time>
      </trkpt>
      <trkpt lat="43.65019" lon="6.26416">
        <ele>988.59997558594</ele>
        <time>2012-10-30T11:09:35</time>
      </trkpt>
      <trkpt lat="43.65024" lon="6.2638">
        <ele>992.40002441406</ele>
        <time>2012-10-30T11:10:00</time>
      </trkpt>
      <trkpt lat="43.65034" lon="6.26318">
        <ele>998</ele>
        <time>2012-10-30T11:12:15</time>
      </trkpt>
      <trkpt lat="43.65038" lon="6.26295">
        <ele>997.80004882812</ele>
        <time>2012-10-30T11:12:29</time>
      </trkpt>
      <trkpt lat="43.6504" lon="6.26263">
        <ele>996.5</ele>
        <time>2012-10-30T11:12:48</time>
      </trkpt>
      <trkpt lat="43.65052" lon="6.26222">
        <ele>995.69995117188</ele>
        <time>2012-10-30T11:13:12</time>
      </trkpt>
      <trkpt lat="43.65051" lon="6.2619">
        <ele>994.40002441406</ele>
        <time>2012-10-30T11:13:34</time>
      </trkpt>
      <trkpt lat="43.65053" lon="6.26168">
        <ele>991.19995117188</ele>
        <time>2012-10-30T11:13:50</time>
      </trkpt>
      <trkpt lat="43.65058" lon="6.26132">
        <ele>996.59997558594</ele>
        <time>2012-10-30T11:14:21</time>
      </trkpt>
      <trkpt lat="43.65064" lon="6.26115">
        <ele>996.59997558594</ele>
        <time>2012-10-30T11:14:34</time>
      </trkpt>
      <trkpt lat="43.65092" lon="6.26073">
        <ele>976.5</ele>
        <time>2012-10-30T11:15:08</time>
      </trkpt>
      <trkpt lat="43.651" lon="6.26053">
        <ele>978.19995117188</ele>
        <time>2012-10-30T11:15:21</time>
      </trkpt>
      <trkpt lat="43.65099" lon="6.26024">
        <ele>982.59997558594</ele>
        <time>2012-10-30T11:15:34</time>
      </trkpt>
      <trkpt lat="43.65101" lon="6.25976">
        <ele>969.90002441406</ele>
        <time>2012-10-30T11:16:11</time>
      </trkpt>
      <trkpt lat="43.65114" lon="6.25959">
        <ele>975</ele>
        <time>2012-10-30T11:16:23</time>
      </trkpt>
      <trkpt lat="43.65122" lon="6.25935">
        <ele>979.40002441406</ele>
        <time>2012-10-30T11:16:37</time>
      </trkpt>
      <trkpt lat="43.65126" lon="6.25896">
        <ele>975.30004882812</ele>
        <time>2012-10-30T11:17:08</time>
      </trkpt>
      <trkpt lat="43.65127" lon="6.25876">
        <ele>976.19995117188</ele>
        <time>2012-10-30T11:17:20</time>
      </trkpt>
      <trkpt lat="43.65124" lon="6.2583">
        <ele>973.20001220703</ele>
        <time>2012-10-30T11:17:56</time>
      </trkpt>
      <trkpt lat="43.65123" lon="6.25795">
        <ele>965.5</ele>
        <time>2012-10-30T11:18:24</time>
      </trkpt>
      <trkpt lat="43.65119" lon="6.25775">
        <ele>968.40002441406</ele>
        <time>2012-10-30T11:18:42</time>
      </trkpt>
      <trkpt lat="43.65117" lon="6.25744">
        <ele>971.40002441406</ele>
        <time>2012-10-30T11:19:06</time>
      </trkpt>
      <trkpt lat="43.65114" lon="6.25717">
        <ele>974.20001220703</ele>
        <time>2012-10-30T11:19:28</time>
      </trkpt>
      <trkpt lat="43.6509" lon="6.25682">
        <ele>974.5</ele>
        <time>2012-10-30T11:19:55</time>
      </trkpt>
      <trkpt lat="43.65099" lon="6.25664">
        <ele>973.5</ele>
        <time>2012-10-30T11:20:09</time>
      </trkpt>
      <trkpt lat="43.65117" lon="6.25662">
        <ele>962.79998779297</ele>
        <time>2012-10-30T11:20:27</time>
      </trkpt>
      <trkpt lat="43.65126" lon="6.25613">
        <ele>962.5</ele>
        <time>2012-10-30T11:20:56</time>
      </trkpt>
      <trkpt lat="43.65157" lon="6.25584">
        <ele>958.90002441406</ele>
        <time>2012-10-30T11:23:14</time>
      </trkpt>
      <trkpt lat="43.65177" lon="6.25575">
        <ele>959.29998779297</ele>
        <time>2012-10-30T11:23:43</time>
      </trkpt>
      <trkpt lat="43.65204" lon="6.2557">
        <ele>952.70001220703</ele>
        <time>2012-10-30T11:24:02</time>
      </trkpt>
      <trkpt lat="43.65216" lon="6.25548">
        <ele>951.79998779297</ele>
        <time>2012-10-30T11:24:17</time>
      </trkpt>
      <trkpt lat="43.6523" lon="6.25523">
        <ele>949.5</ele>
        <time>2012-10-30T11:24:36</time>
      </trkpt>
      <trkpt lat="43.6527" lon="6.25473">
        <ele>950</ele>
        <time>2012-10-30T11:25:10</time>
      </trkpt>
      <trkpt lat="43.65282" lon="6.25461">
        <ele>950.79998779297</ele>
        <time>2012-10-30T11:25:23</time>
      </trkpt>
      <trkpt lat="43.653" lon="6.25442">
        <ele>953.59997558594</ele>
        <time>2012-10-30T11:25:41</time>
      </trkpt>
      <trkpt lat="43.65315" lon="6.25439">
        <ele>957.5</ele>
        <time>2012-10-30T11:26:05</time>
      </trkpt>
      <trkpt lat="43.65324" lon="6.25382">
        <ele>957.90002441406</ele>
        <time>2012-10-30T11:26:41</time>
      </trkpt>
      <trkpt lat="43.65324" lon="6.25348">
        <ele>956.90002441406</ele>
        <time>2012-10-30T11:27:00</time>
      </trkpt>
      <trkpt lat="43.65335" lon="6.25312">
        <ele>959.40002441406</ele>
        <time>2012-10-30T11:27:16</time>
      </trkpt>
      <trkpt lat="43.65342" lon="6.25297">
        <ele>957.20001220703</ele>
        <time>2012-10-30T11:27:30</time>
      </trkpt>
      <trkpt lat="43.65356" lon="6.25251">
        <ele>970</ele>
        <time>2012-10-30T11:27:59</time>
      </trkpt>
      <trkpt lat="43.65355" lon="6.25219">
        <ele>973.29998779297</ele>
        <time>2012-10-30T11:28:21</time>
      </trkpt>
      <trkpt lat="43.65373" lon="6.25198">
        <ele>978.40002441406</ele>
        <time>2012-10-30T11:28:39</time>
      </trkpt>
      <trkpt lat="43.65374" lon="6.25146">
        <ele>983.90002441406</ele>
        <time>2012-10-30T11:29:02</time>
      </trkpt>
      <trkpt lat="43.6537" lon="6.25125">
        <ele>981.40002441406</ele>
        <time>2012-10-30T11:29:17</time>
      </trkpt>
      <trkpt lat="43.65356" lon="6.25085">
        <ele>992.90002441406</ele>
        <time>2012-10-30T11:29:37</time>
      </trkpt>
      <trkpt lat="43.65359" lon="6.25066">
        <ele>991.19995117188</ele>
        <time>2012-10-30T11:29:47</time>
      </trkpt>
      <trkpt lat="43.65356" lon="6.25026">
        <ele>1001.4000244141</ele>
        <time>2012-10-30T11:30:16</time>
      </trkpt>
      <trkpt lat="43.6535" lon="6.25007">
        <ele>1006</ele>
        <time>2012-10-30T11:30:27</time>
      </trkpt>
      <trkpt lat="43.65353" lon="6.24982">
        <ele>1002</ele>
        <time>2012-10-30T11:31:29</time>
      </trkpt>
      <trkpt lat="43.65424" lon="6.24884">
        <ele>966.59997558594</ele>
        <time>2012-10-30T12:11:00</time>
      </trkpt>
      <trkpt lat="43.65433" lon="6.24845">
        <ele>954.5</ele>
        <time>2012-10-30T12:12:42</time>
      </trkpt>
      <trkpt lat="43.65434" lon="6.24842">
        <ele>954.20001220703</ele>
        <time>2012-10-30T12:12:44</time>
      </trkpt>
      <trkpt lat="43.65462" lon="6.24813">
        <ele>940.59997558594</ele>
        <time>2012-10-30T12:13:08</time>
      </trkpt>
      <trkpt lat="43.6549" lon="6.24764">
        <ele>935.29998779297</ele>
        <time>2012-10-30T12:13:32</time>
      </trkpt>
      <trkpt lat="43.65499" lon="6.2475">
        <ele>941.59997558594</ele>
        <time>2012-10-30T12:13:43</time>
      </trkpt>
      <trkpt lat="43.65504" lon="6.24724">
        <ele>939</ele>
        <time>2012-10-30T12:13:59</time>
      </trkpt>
      <trkpt lat="43.65531" lon="6.24699">
        <ele>939.5</ele>
        <time>2012-10-30T12:14:19</time>
      </trkpt>
      <trkpt lat="43.65543" lon="6.2468">
        <ele>939.59997558594</ele>
        <time>2012-10-30T12:14:28</time>
      </trkpt>
      <trkpt lat="43.65579" lon="6.24639">
        <ele>939.90002441406</ele>
        <time>2012-10-30T12:14:54</time>
      </trkpt>
      <trkpt lat="43.65596" lon="6.24603">
        <ele>931.09997558594</ele>
        <time>2012-10-30T12:15:09</time>
      </trkpt>
      <trkpt lat="43.65599" lon="6.24594">
        <ele>930.09997558594</ele>
        <time>2012-10-30T12:15:13</time>
      </trkpt>
      <trkpt lat="43.6562" lon="6.24534">
        <ele>928</ele>
        <time>2012-10-30T12:15:40</time>
      </trkpt>
      <trkpt lat="43.65623" lon="6.24512">
        <ele>926.09997558594</ele>
        <time>2012-10-30T12:15:52</time>
      </trkpt>
      <trkpt lat="43.65626" lon="6.24481">
        <ele>918.20001220703</ele>
        <time>2012-10-30T12:16:11</time>
      </trkpt>
      <trkpt lat="43.65622" lon="6.24447">
        <ele>934.40002441406</ele>
        <time>2012-10-30T12:16:22</time>
      </trkpt>
      <trkpt lat="43.65617" lon="6.2441">
        <ele>910.09997558594</ele>
        <time>2012-10-30T12:16:43</time>
      </trkpt>
      <trkpt lat="43.65611" lon="6.24355">
        <ele>914.70001220703</ele>
        <time>2012-10-30T12:17:03</time>
      </trkpt>
      <trkpt lat="43.65605" lon="6.24312">
        <ele>918</ele>
        <time>2012-10-30T12:17:19</time>
      </trkpt>
      <trkpt lat="43.6561" lon="6.2428">
        <ele>925.59997558594</ele>
        <time>2012-10-30T12:17:49</time>
      </trkpt>
      <trkpt lat="43.6561" lon="6.24264">
        <ele>921.70001220703</ele>
        <time>2012-10-30T12:18:12</time>
      </trkpt>
      <trkpt lat="43.65616" lon="6.24225">
        <ele>923.5</ele>
        <time>2012-10-30T12:18:41</time>
      </trkpt>
      <trkpt lat="43.65638" lon="6.24187">
        <ele>925.70001220703</ele>
        <time>2012-10-30T12:19:15</time>
      </trkpt>
      <trkpt lat="43.65657" lon="6.24168">
        <ele>922.5</ele>
        <time>2012-10-30T12:19:27</time>
      </trkpt>
      <trkpt lat="43.65683" lon="6.24138">
        <ele>917.20001220703</ele>
        <time>2012-10-30T12:19:46</time>
      </trkpt>
      <trkpt lat="43.65702" lon="6.2411">
        <ele>903.70001220703</ele>
        <time>2012-10-30T12:20:00</time>
      </trkpt>
      <trkpt lat="43.65721" lon="6.24106">
        <ele>902.29998779297</ele>
        <time>2012-10-30T12:20:10</time>
      </trkpt>
      <trkpt lat="43.65732" lon="6.24092">
        <ele>895.90002441406</ele>
        <time>2012-10-30T12:20:15</time>
      </trkpt>
      <trkpt lat="43.65752" lon="6.2404">
        <ele>898.5</ele>
        <time>2012-10-30T12:20:32</time>
      </trkpt>
      <trkpt lat="43.65761" lon="6.24006">
        <ele>901</ele>
        <time>2012-10-30T12:20:44</time>
      </trkpt>
      <trkpt lat="43.65778" lon="6.23975">
        <ele>902.70001220703</ele>
        <time>2012-10-30T12:20:57</time>
      </trkpt>
      <trkpt lat="43.65787" lon="6.23952">
        <ele>911.20001220703</ele>
        <time>2012-10-30T12:21:10</time>
      </trkpt>
      <trkpt lat="43.65806" lon="6.23911">
        <ele>903.59997558594</ele>
        <time>2012-10-30T12:21:40</time>
      </trkpt>
      <trkpt lat="43.65822" lon="6.23889">
        <ele>912.59997558594</ele>
        <time>2012-10-30T12:22:16</time>
      </trkpt>
      <trkpt lat="43.65824" lon="6.23881">
        <ele>913</ele>
        <time>2012-10-30T12:22:19</time>
      </trkpt>
      <trkpt lat="43.65847" lon="6.23854">
        <ele>914.29998779297</ele>
        <time>2012-10-30T12:22:43</time>
      </trkpt>
      <trkpt lat="43.65861" lon="6.23825">
        <ele>907.59997558594</ele>
        <time>2012-10-30T12:22:57</time>
      </trkpt>
      <trkpt lat="43.65877" lon="6.23806">
        <ele>905.90002441406</ele>
        <time>2012-10-30T12:23:14</time>
      </trkpt>
      <trkpt lat="43.65898" lon="6.23807">
        <ele>906</ele>
        <time>2012-10-30T12:23:21</time>
      </trkpt>
      <trkpt lat="43.65915" lon="6.2378">
        <ele>900</ele>
        <time>2012-10-30T12:23:35</time>
      </trkpt>
      <trkpt lat="43.65937" lon="6.23768">
        <ele>883.59997558594</ele>
        <time>2012-10-30T12:23:47</time>
      </trkpt>
      <trkpt lat="43.6597" lon="6.23749">
        <ele>875.40002441406</ele>
        <time>2012-10-30T12:24:04</time>
      </trkpt>
      <trkpt lat="43.65977" lon="6.23731">
        <ele>871</ele>
        <time>2012-10-30T12:24:12</time>
      </trkpt>
      <trkpt lat="43.65993" lon="6.23695">
        <ele>869.5</ele>
        <time>2012-10-30T12:24:33</time>
      </trkpt>
      <trkpt lat="43.66004" lon="6.23665">
        <ele>868</ele>
        <time>2012-10-30T12:24:51</time>
      </trkpt>
      <trkpt lat="43.66021" lon="6.23641">
        <ele>868.90002441406</ele>
        <time>2012-10-30T12:25:05</time>
      </trkpt>
      <trkpt lat="43.66029" lon="6.23623">
        <ele>872.40002441406</ele>
        <time>2012-10-30T12:25:13</time>
      </trkpt>
      <trkpt lat="43.66036" lon="6.23578">
        <ele>851.70001220703</ele>
        <time>2012-10-30T12:25:47</time>
      </trkpt>
      <trkpt lat="43.66019" lon="6.23592">
        <ele>853.40002441406</ele>
        <time>2012-10-30T12:26:02</time>
      </trkpt>
      <trkpt lat="43.66" lon="6.23614">
        <ele>855.59997558594</ele>
        <time>2012-10-30T12:26:20</time>
      </trkpt>
      <trkpt lat="43.65984" lon="6.23641">
        <ele>853.59997558594</ele>
        <time>2012-10-30T12:26:34</time>
      </trkpt>
      <trkpt lat="43.65972" lon="6.23655">
        <ele>851.79998779297</ele>
        <time>2012-10-30T12:26:39</time>
      </trkpt>
      <trkpt lat="43.6594" lon="6.2368">
        <ele>851.20001220703</ele>
        <time>2012-10-30T12:26:52</time>
      </trkpt>
      <trkpt lat="43.65929" lon="6.23692">
        <ele>848.40002441406</ele>
        <time>2012-10-30T12:26:58</time>
      </trkpt>
      <trkpt lat="43.65885" lon="6.23694">
        <ele>853.79998779297</ele>
        <time>2012-10-30T12:27:16</time>
      </trkpt>
      <trkpt lat="43.65837" lon="6.23736">
        <ele>850.79998779297</ele>
        <time>2012-10-30T12:27:48</time>
      </trkpt>
      <trkpt lat="43.65825" lon="6.23755">
        <ele>855.70001220703</ele>
        <time>2012-10-30T12:28:06</time>
      </trkpt>
      <trkpt lat="43.65806" lon="6.2377">
        <ele>861.20001220703</ele>
        <time>2012-10-30T12:28:31</time>
      </trkpt>
      <trkpt lat="43.65792" lon="6.23776">
        <ele>861</ele>
        <time>2012-10-30T12:28:44</time>
      </trkpt>
      <trkpt lat="43.65764" lon="6.23784">
        <ele>862.70001220703</ele>
        <time>2012-10-30T12:29:05</time>
      </trkpt>
      <trkpt lat="43.6575" lon="6.23805">
        <ele>865.29998779297</ele>
        <time>2012-10-30T12:29:21</time>
      </trkpt>
      <trkpt lat="43.65721" lon="6.23809">
        <ele>857.29998779297</ele>
        <time>2012-10-30T12:29:38</time>
      </trkpt>
      <trkpt lat="43.65692" lon="6.23854">
        <ele>884.5</ele>
        <time>2012-10-30T12:30:15</time>
      </trkpt>
      <trkpt lat="43.65683" lon="6.23878">
        <ele>883.59997558594</ele>
        <time>2012-10-30T12:30:29</time>
      </trkpt>
      <trkpt lat="43.65687" lon="6.23902">
        <ele>882.29998779297</ele>
        <time>2012-10-30T12:30:44</time>
      </trkpt>
      <trkpt lat="43.65698" lon="6.23943">
        <ele>896.29998779297</ele>
        <time>2012-10-30T12:31:13</time>
      </trkpt>
      <trkpt lat="43.65711" lon="6.23979">
        <ele>896.29998779297</ele>
        <time>2012-10-30T12:31:31</time>
      </trkpt>
      <trkpt lat="43.65708" lon="6.24">
        <ele>892.09997558594</ele>
        <time>2012-10-30T12:31:41</time>
      </trkpt>
      <trkpt lat="43.65668" lon="6.24036">
        <ele>884.09997558594</ele>
        <time>2012-10-30T12:32:13</time>
      </trkpt>
      <trkpt lat="43.65652" lon="6.24034">
        <ele>887.79998779297</ele>
        <time>2012-10-30T12:32:23</time>
      </trkpt>
      <trkpt lat="43.65633" lon="6.24031">
        <ele>891.20001220703</ele>
        <time>2012-10-30T12:32:37</time>
      </trkpt>
      <trkpt lat="43.65596" lon="6.24053">
        <ele>892.29998779297</ele>
        <time>2012-10-30T12:33:07</time>
      </trkpt>
      <trkpt lat="43.65585" lon="6.2406">
        <ele>892.29998779297</ele>
        <time>2012-10-30T12:33:19</time>
      </trkpt>
      <trkpt lat="43.65558" lon="6.24086">
        <ele>886</ele>
        <time>2012-10-30T12:33:44</time>
      </trkpt>
      <trkpt lat="43.65551" lon="6.24089">
        <ele>884</ele>
        <time>2012-10-30T12:33:49</time>
      </trkpt>
      <trkpt lat="43.65526" lon="6.24098">
        <ele>877.70001220703</ele>
        <time>2012-10-30T12:34:14</time>
      </trkpt>
      <trkpt lat="43.65517" lon="6.24068">
        <ele>868.70001220703</ele>
        <time>2012-10-30T12:34:38</time>
      </trkpt>
      <trkpt lat="43.65514" lon="6.24053">
        <ele>870.20001220703</ele>
        <time>2012-10-30T12:34:47</time>
      </trkpt>
      <trkpt lat="43.65514" lon="6.23983">
        <ele>867.79998779297</ele>
        <time>2012-10-30T12:35:15</time>
      </trkpt>
      <trkpt lat="43.65507" lon="6.23963">
        <ele>863.20001220703</ele>
        <time>2012-10-30T12:35:25</time>
      </trkpt>
      <trkpt lat="43.65473" lon="6.23949">
        <ele>854.5</ele>
        <time>2012-10-30T12:35:45</time>
      </trkpt>
      <trkpt lat="43.65466" lon="6.23938">
        <ele>852.5</ele>
        <time>2012-10-30T12:35:50</time>
      </trkpt>
      <trkpt lat="43.65459" lon="6.23888">
        <ele>845.70001220703</ele>
        <time>2012-10-30T12:36:04</time>
      </trkpt>
      <trkpt lat="43.65458" lon="6.23844">
        <ele>842.79998779297</ele>
        <time>2012-10-30T12:36:19</time>
      </trkpt>
      <trkpt lat="43.65458" lon="6.23822">
        <ele>848.79998779297</ele>
        <time>2012-10-30T12:36:27</time>
      </trkpt>
      <trkpt lat="43.65418" lon="6.23798">
        <ele>830</ele>
        <time>2012-10-30T12:36:47</time>
      </trkpt>
      <trkpt lat="43.65386" lon="6.238">
        <ele>818.20001220703</ele>
        <time>2012-10-30T12:37:01</time>
      </trkpt>
      <trkpt lat="43.65346" lon="6.23804">
        <ele>818.29998779297</ele>
        <time>2012-10-30T12:37:16</time>
      </trkpt>
      <trkpt lat="43.65335" lon="6.23822">
        <ele>816.70001220703</ele>
        <time>2012-10-30T12:37:23</time>
      </trkpt>
      <trkpt lat="43.65322" lon="6.2387">
        <ele>811</ele>
        <time>2012-10-30T12:37:36</time>
      </trkpt>
      <trkpt lat="43.65318" lon="6.23886">
        <ele>808.40002441406</ele>
        <time>2012-10-30T12:37:43</time>
      </trkpt>
      <trkpt lat="43.65316" lon="6.23949">
        <ele>804</ele>
        <time>2012-10-30T12:38:02</time>
      </trkpt>
      <trkpt lat="43.65299" lon="6.23983">
        <ele>799.59997558594</ele>
        <time>2012-10-30T12:38:16</time>
      </trkpt>
      <trkpt lat="43.65294" lon="6.23999">
        <ele>799.79998779297</ele>
        <time>2012-10-30T12:38:20</time>
      </trkpt>
      <trkpt lat="43.65279" lon="6.24029">
        <ele>793.20001220703</ele>
        <time>2012-10-30T12:38:34</time>
      </trkpt>
      <trkpt lat="43.65262" lon="6.2408">
        <ele>783.79998779297</ele>
        <time>2012-10-30T12:38:50</time>
      </trkpt>
      <trkpt lat="43.65249" lon="6.24105">
        <ele>781.20001220703</ele>
        <time>2012-10-30T12:39:02</time>
      </trkpt>
      <trkpt lat="43.6524" lon="6.24118">
        <ele>779.70001220703</ele>
        <time>2012-10-30T12:39:08</time>
      </trkpt>
      <trkpt lat="43.6522" lon="6.24142">
        <ele>775.09997558594</ele>
        <time>2012-10-30T12:39:17</time>
      </trkpt>
      <trkpt lat="43.65192" lon="6.24176">
        <ele>762.5</ele>
        <time>2012-10-30T12:39:33</time>
      </trkpt>
      <trkpt lat="43.65169" lon="6.24202">
        <ele>760.70001220703</ele>
        <time>2012-10-30T12:39:47</time>
      </trkpt>
      <trkpt lat="43.6515" lon="6.24253">
        <ele>755.20001220703</ele>
        <time>2012-10-30T12:40:05</time>
      </trkpt>
      <trkpt lat="43.6513" lon="6.24285">
        <ele>754.20001220703</ele>
        <time>2012-10-30T12:40:18</time>
      </trkpt>
      <trkpt lat="43.65117" lon="6.2431">
        <ele>748.59997558594</ele>
        <time>2012-10-30T12:40:28</time>
      </trkpt>
      <trkpt lat="43.65099" lon="6.24325">
        <ele>744.59997558594</ele>
        <time>2012-10-30T12:40:38</time>
      </trkpt>
      <trkpt lat="43.65077" lon="6.24335">
        <ele>746.59997558594</ele>
        <time>2012-10-30T12:40:59</time>
      </trkpt>
      <trkpt lat="43.65049" lon="6.24348">
        <ele>732.20001220703</ele>
        <time>2012-10-30T12:41:15</time>
      </trkpt>
      <trkpt lat="43.65029" lon="6.24383">
        <ele>728.5</ele>
        <time>2012-10-30T12:41:25</time>
      </trkpt>
      <trkpt lat="43.65016" lon="6.24418">
        <ele>731.5</ele>
        <time>2012-10-30T12:41:36</time>
      </trkpt>
      <trkpt lat="43.64991" lon="6.24451">
        <ele>724.40002441406</ele>
        <time>2012-10-30T12:41:50</time>
      </trkpt>
      <trkpt lat="43.64973" lon="6.24469">
        <ele>726.40002441406</ele>
        <time>2012-10-30T12:41:59</time>
      </trkpt>
      <trkpt lat="43.64955" lon="6.2448">
        <ele>717.90002441406</ele>
        <time>2012-10-30T12:42:07</time>
      </trkpt>
      <trkpt lat="43.64929" lon="6.24495">
        <ele>720.40002441406</ele>
        <time>2012-10-30T12:42:17</time>
      </trkpt>
      <trkpt lat="43.64907" lon="6.24528">
        <ele>722.90002441406</ele>
        <time>2012-10-30T12:42:32</time>
      </trkpt>
      <trkpt lat="43.64897" lon="6.2454">
        <ele>719.40002441406</ele>
        <time>2012-10-30T12:42:36</time>
      </trkpt>
      <trkpt lat="43.64887" lon="6.24582">
        <ele>716.20001220703</ele>
        <time>2012-10-30T12:42:51</time>
      </trkpt>
      <trkpt lat="43.64866" lon="6.24608">
        <ele>711.70001220703</ele>
        <time>2012-10-30T12:43:05</time>
      </trkpt>
      <trkpt lat="43.64839" lon="6.24607">
        <ele>703.79998779297</ele>
        <time>2012-10-30T12:43:17</time>
      </trkpt>
      <trkpt lat="43.64812" lon="6.24646">
        <ele>700</ele>
        <time>2012-10-30T12:43:30</time>
      </trkpt>
      <trkpt lat="43.64792" lon="6.2465">
        <ele>700.59997558594</ele>
        <time>2012-10-30T12:43:36</time>
      </trkpt>
      <trkpt lat="43.64764" lon="6.24654">
        <ele>692.59997558594</ele>
        <time>2012-10-30T12:43:47</time>
      </trkpt>
      <trkpt lat="43.64725" lon="6.24667">
        <ele>693.40002441406</ele>
        <time>2012-10-30T12:44:05</time>
      </trkpt>
      <trkpt lat="43.64723" lon="6.24669">
        <ele>696.5</ele>
        <time>2012-10-30T12:44:05</time>
      </trkpt>
      <trkpt lat="43.64675" lon="6.24683">
        <ele>692.90002441406</ele>
        <time>2012-10-30T12:44:21</time>
      </trkpt>
      <trkpt lat="43.64645" lon="6.2468">
        <ele>694.09997558594</ele>
        <time>2012-10-30T12:44:32</time>
      </trkpt>
      <trkpt lat="43.64635" lon="6.24676">
        <ele>689.40002441406</ele>
        <time>2012-10-30T12:44:38</time>
      </trkpt>
      <trkpt lat="43.64589" lon="6.24603">
        <ele>691.70001220703</ele>
        <time>2012-10-30T12:45:04</time>
      </trkpt>
      <trkpt lat="43.64571" lon="6.24583">
        <ele>695.70001220703</ele>
        <time>2012-10-30T12:45:12</time>
      </trkpt>
      <trkpt lat="43.64543" lon="6.24572">
        <ele>690.70001220703</ele>
        <time>2012-10-30T12:45:24</time>
      </trkpt>
      <trkpt lat="43.64508" lon="6.24577">
        <ele>679.70001220703</ele>
        <time>2012-10-30T12:45:35</time>
      </trkpt>
      <trkpt lat="43.64498" lon="6.24572">
        <ele>691.90002441406</ele>
        <time>2012-10-30T12:45:42</time>
      </trkpt>
      <trkpt lat="43.64503" lon="6.24521">
        <ele>699.20001220703</ele>
        <time>2012-10-30T12:46:07</time>
      </trkpt>
      <trkpt lat="43.64482" lon="6.24485">
        <ele>679.79998779297</ele>
        <time>2012-10-30T12:46:37</time>
      </trkpt>
      <trkpt lat="43.64472" lon="6.24483">
        <ele>675.79998779297</ele>
        <time>2012-10-30T12:46:41</time>
      </trkpt>
      <trkpt lat="43.6444" lon="6.24464">
        <ele>666.90002441406</ele>
        <time>2012-10-30T12:46:57</time>
      </trkpt>
      <trkpt lat="43.6444" lon="6.24434">
        <ele>669.70001220703</ele>
        <time>2012-10-30T12:47:07</time>
      </trkpt>
      <trkpt lat="43.64426" lon="6.24398">
        <ele>662.79998779297</ele>
        <time>2012-10-30T12:47:19</time>
      </trkpt>
      <trkpt lat="43.64423" lon="6.24356">
        <ele>660.09997558594</ele>
        <time>2012-10-30T12:47:31</time>
      </trkpt>
      <trkpt lat="43.64422" lon="6.24332">
        <ele>656.29998779297</ele>
        <time>2012-10-30T12:47:39</time>
      </trkpt>
      <trkpt lat="43.64404" lon="6.24289">
        <ele>653.90002441406</ele>
        <time>2012-10-30T12:47:54</time>
      </trkpt>
      <trkpt lat="43.64393" lon="6.24259">
        <ele>650.59997558594</ele>
        <time>2012-10-30T12:48:05</time>
      </trkpt>
      <trkpt lat="43.644" lon="6.24237">
        <ele>641.79998779297</ele>
        <time>2012-10-30T12:48:12</time>
      </trkpt>
      <trkpt lat="43.64401" lon="6.24198">
        <ele>634.20001220703</ele>
        <time>2012-10-30T12:48:23</time>
      </trkpt>
      <trkpt lat="43.64389" lon="6.24169">
        <ele>638.79998779297</ele>
        <time>2012-10-30T12:48:33</time>
      </trkpt>
      <trkpt lat="43.64391" lon="6.24134">
        <ele>637.59997558594</ele>
        <time>2012-10-30T12:48:43</time>
      </trkpt>
      <trkpt lat="43.64388" lon="6.24072">
        <ele>641.40002441406</ele>
        <time>2012-10-30T12:49:01</time>
      </trkpt>
      <trkpt lat="43.64386" lon="6.24006">
        <ele>633.70001220703</ele>
        <time>2012-10-30T12:49:17</time>
      </trkpt>
      <trkpt lat="43.64409" lon="6.23985">
        <ele>635.90002441406</ele>
        <time>2012-10-30T12:49:30</time>
      </trkpt>
      <trkpt lat="43.64408" lon="6.23964">
        <ele>626.90002441406</ele>
        <time>2012-10-30T12:49:35</time>
      </trkpt>
      <trkpt lat="43.6438" lon="6.23904">
        <ele>633</ele>
        <time>2012-10-30T12:49:55</time>
      </trkpt>
      <trkpt lat="43.64369" lon="6.23907">
        <ele>629.20001220703</ele>
        <time>2012-10-30T12:50:01</time>
      </trkpt>
      <trkpt lat="43.64339" lon="6.2392">
        <ele>622.29998779297</ele>
        <time>2012-10-30T12:50:12</time>
      </trkpt>
      <trkpt lat="43.64314" lon="6.2392">
        <ele>620.70001220703</ele>
        <time>2012-10-30T12:50:24</time>
      </trkpt>
      <trkpt lat="43.64328" lon="6.23902">
        <ele>608.20001220703</ele>
        <time>2012-10-30T12:50:43</time>
      </trkpt>
      <trkpt lat="43.64342" lon="6.23869">
        <ele>598.5</ele>
        <time>2012-10-30T12:51:00</time>
      </trkpt>
      <trkpt lat="43.64377" lon="6.2386">
        <ele>612.29998779297</ele>
        <time>2012-10-30T12:51:29</time>
      </trkpt>
      <trkpt lat="43.64386" lon="6.23833">
        <ele>614.5</ele>
        <time>2012-10-30T12:51:43</time>
      </trkpt>
      <trkpt lat="43.64415" lon="6.23815">
        <ele>617.20001220703</ele>
        <time>2012-10-30T12:51:58</time>
      </trkpt>
      <trkpt lat="43.6442" lon="6.23808">
        <ele>611.70001220703</ele>
        <time>2012-10-30T12:52:08</time>
      </trkpt>
      <trkpt lat="43.64446" lon="6.23795">
        <ele>611.09997558594</ele>
        <time>2012-10-30T12:52:21</time>
      </trkpt>
      <trkpt lat="43.64464" lon="6.23816">
        <ele>607.09997558594</ele>
        <time>2012-10-30T12:52:41</time>
      </trkpt>
      <trkpt lat="43.64488" lon="6.2379">
        <ele>614</ele>
        <time>2012-10-30T12:53:04</time>
      </trkpt>
      <trkpt lat="43.64479" lon="6.23781">
        <ele>616</ele>
        <time>2012-10-30T12:53:12</time>
      </trkpt>
      <trkpt lat="43.64456" lon="6.23738">
        <ele>610.5</ele>
        <time>2012-10-30T12:53:44</time>
      </trkpt>
      <trkpt lat="43.64441" lon="6.2371">
        <ele>604.70001220703</ele>
        <time>2012-10-30T12:54:00</time>
      </trkpt>
      <trkpt lat="43.64413" lon="6.23691">
        <ele>592.70001220703</ele>
        <time>2012-10-30T12:54:23</time>
      </trkpt>
      <trkpt lat="43.644" lon="6.23689">
        <ele>595</ele>
        <time>2012-10-30T12:54:32</time>
      </trkpt>
      <trkpt lat="43.64373" lon="6.2368">
        <ele>603.29998779297</ele>
        <time>2012-10-30T12:54:51</time>
      </trkpt>
      <trkpt lat="43.64352" lon="6.23658">
        <ele>609.29998779297</ele>
        <time>2012-10-30T12:55:12</time>
      </trkpt>
      <trkpt lat="43.64329" lon="6.23611">
        <ele>625.09997558594</ele>
        <time>2012-10-30T12:55:40</time>
      </trkpt>
      <trkpt lat="43.64325" lon="6.23592">
        <ele>632.29998779297</ele>
        <time>2012-10-30T12:55:52</time>
      </trkpt>
      <trkpt lat="43.6432" lon="6.23551">
        <ele>630</ele>
        <time>2012-10-30T12:56:12</time>
      </trkpt>
      <trkpt lat="43.64317" lon="6.23524">
        <ele>623.70001220703</ele>
        <time>2012-10-30T12:56:26</time>
      </trkpt>
      <trkpt lat="43.64316" lon="6.2349">
        <ele>622</ele>
        <time>2012-10-30T12:56:51</time>
      </trkpt>
      <trkpt lat="43.64325" lon="6.23454">
        <ele>635</ele>
        <time>2012-10-30T12:57:11</time>
      </trkpt>
      <trkpt lat="43.64309" lon="6.234">
        <ele>615.90002441406</ele>
        <time>2012-10-30T12:57:35</time>
      </trkpt>
      <trkpt lat="43.64289" lon="6.23377">
        <ele>610.29998779297</ele>
        <time>2012-10-30T12:57:43</time>
      </trkpt>
      <trkpt lat="43.64279" lon="6.23342">
        <ele>617.40002441406</ele>
        <time>2012-10-30T12:58:12</time>
      </trkpt>
      <trkpt lat="43.64264" lon="6.2331">
        <ele>617.29998779297</ele>
        <time>2012-10-30T12:58:32</time>
      </trkpt>
      <trkpt lat="43.64251" lon="6.23303">
        <ele>619.5</ele>
        <time>2012-10-30T12:58:43</time>
      </trkpt>
      <trkpt lat="43.64223" lon="6.23293">
        <ele>625.40002441406</ele>
        <time>2012-10-30T12:59:04</time>
      </trkpt>
      <trkpt lat="43.64198" lon="6.23274">
        <ele>630</ele>
        <time>2012-10-30T13:00:14</time>
      </trkpt>
      <trkpt lat="43.64187" lon="6.23258">
        <ele>632.90002441406</ele>
        <time>2012-10-30T13:00:27</time>
      </trkpt>
      <trkpt lat="43.64163" lon="6.23221">
        <ele>631.59997558594</ele>
        <time>2012-10-30T13:00:54</time>
      </trkpt>
      <trkpt lat="43.64146" lon="6.23199">
        <ele>625.20001220703</ele>
        <time>2012-10-30T13:01:10</time>
      </trkpt>
      <trkpt lat="43.64123" lon="6.23176">
        <ele>620.70001220703</ele>
        <time>2012-10-30T13:01:30</time>
      </trkpt>
      <trkpt lat="43.64105" lon="6.23172">
        <ele>619.29998779297</ele>
        <time>2012-10-30T13:01:44</time>
      </trkpt>
      <trkpt lat="43.64083" lon="6.23158">
        <ele>616.70001220703</ele>
        <time>2012-10-30T13:02:04</time>
      </trkpt>
      <trkpt lat="43.64061" lon="6.23149">
        <ele>614</ele>
        <time>2012-10-30T13:02:20</time>
      </trkpt>
      <trkpt lat="43.64026" lon="6.23139">
        <ele>613.09997558594</ele>
        <time>2012-10-30T13:02:47</time>
      </trkpt>
      <trkpt lat="43.63997" lon="6.23128">
        <ele>612.20001220703</ele>
        <time>2012-10-30T13:03:07</time>
      </trkpt>
      <trkpt lat="43.63971" lon="6.23116">
        <ele>613.09997558594</ele>
        <time>2012-10-30T13:03:28</time>
      </trkpt>
      <trkpt lat="43.63954" lon="6.23112">
        <ele>612.90002441406</ele>
        <time>2012-10-30T13:03:38</time>
      </trkpt>
      <trkpt lat="43.6391" lon="6.23113">
        <ele>608.79998779297</ele>
        <time>2012-10-30T13:04:05</time>
      </trkpt>
      <trkpt lat="43.63885" lon="6.23115">
        <ele>610.59997558594</ele>
        <time>2012-10-30T13:04:22</time>
      </trkpt>
      <trkpt lat="43.6386" lon="6.23108">
        <ele>611.79998779297</ele>
        <time>2012-10-30T13:04:45</time>
      </trkpt>
      <trkpt lat="43.63844" lon="6.23102">
        <ele>613.20001220703</ele>
        <time>2012-10-30T13:04:58</time>
      </trkpt>
      <trkpt lat="43.6381" lon="6.2309">
        <ele>614</ele>
        <time>2012-10-30T13:05:23</time>
      </trkpt>
      <trkpt lat="43.63786" lon="6.23083">
        <ele>614.5</ele>
        <time>2012-10-30T13:05:40</time>
      </trkpt>
      <trkpt lat="43.63758" lon="6.23082">
        <ele>613.20001220703</ele>
        <time>2012-10-30T13:05:56</time>
      </trkpt>
      <trkpt lat="43.63732" lon="6.23073">
        <ele>608.09997558594</ele>
        <time>2012-10-30T13:06:16</time>
      </trkpt>
      <trkpt lat="43.63702" lon="6.23054">
        <ele>603.90002441406</ele>
        <time>2012-10-30T13:06:40</time>
      </trkpt>
      <trkpt lat="43.63671" lon="6.23037">
        <ele>600.79998779297</ele>
        <time>2012-10-30T13:07:00</time>
      </trkpt>
      <trkpt lat="43.63659" lon="6.23019">
        <ele>604</ele>
        <time>2012-10-30T13:07:12</time>
      </trkpt>
      <trkpt lat="43.63622" lon="6.22997">
        <ele>604.90002441406</ele>
        <time>2012-10-30T13:07:40</time>
      </trkpt>
      <trkpt lat="43.63614" lon="6.22991">
        <ele>602.90002441406</ele>
        <time>2012-10-30T13:07:51</time>
      </trkpt>
      <trkpt lat="43.63574" lon="6.22971">
        <ele>599.79998779297</ele>
        <time>2012-10-30T13:08:15</time>
      </trkpt>
      <trkpt lat="43.63553" lon="6.22961">
        <ele>598.09997558594</ele>
        <time>2012-10-30T13:08:25</time>
      </trkpt>
      <trkpt lat="43.63534" lon="6.22932">
        <ele>600.70001220703</ele>
        <time>2012-10-30T13:08:45</time>
      </trkpt>
      <trkpt lat="43.63515" lon="6.22909">
        <ele>600.29998779297</ele>
        <time>2012-10-30T13:09:02</time>
      </trkpt>
      <trkpt lat="43.63479" lon="6.22881">
        <ele>593.5</ele>
        <time>2012-10-30T13:09:25</time>
      </trkpt>
      <trkpt lat="43.63466" lon="6.22867">
        <ele>590.59997558594</ele>
        <time>2012-10-30T13:09:41</time>
      </trkpt>
      <trkpt lat="43.63442" lon="6.22833">
        <ele>586.79998779297</ele>
        <time>2012-10-30T13:10:05</time>
      </trkpt>
      <trkpt lat="43.63431" lon="6.22815">
        <ele>584</ele>
        <time>2012-10-30T13:10:20</time>
      </trkpt>
      <trkpt lat="43.63404" lon="6.2278">
        <ele>582.70001220703</ele>
        <time>2012-10-30T13:10:42</time>
      </trkpt>
      <trkpt lat="43.63396" lon="6.22751">
        <ele>579.5</ele>
        <time>2012-10-30T13:10:56</time>
      </trkpt>
      <trkpt lat="43.63392" lon="6.22719">
        <ele>570.90002441406</ele>
        <time>2012-10-30T13:11:13</time>
      </trkpt>
      <trkpt lat="43.63383" lon="6.22671">
        <ele>569.09997558594</ele>
        <time>2012-10-30T13:11:37</time>
      </trkpt>
      <trkpt lat="43.63369" lon="6.22641">
        <ele>566.40002441406</ele>
        <time>2012-10-30T13:11:55</time>
      </trkpt>
      <trkpt lat="43.63356" lon="6.22609">
        <ele>571.70001220703</ele>
        <time>2012-10-30T13:12:16</time>
      </trkpt>
      <trkpt lat="43.63348" lon="6.22581">
        <ele>571.79998779297</ele>
        <time>2012-10-30T13:12:32</time>
      </trkpt>
      <trkpt lat="43.63351" lon="6.22555">
        <ele>567.09997558594</ele>
        <time>2012-10-30T13:12:45</time>
      </trkpt>
      <trkpt lat="43.63372" lon="6.22518">
        <ele>560.20001220703</ele>
        <time>2012-10-30T13:13:12</time>
      </trkpt>
      <trkpt lat="43.63391" lon="6.22504">
        <ele>560.09997558594</ele>
        <time>2012-10-30T13:13:26</time>
      </trkpt>
      <trkpt lat="43.63417" lon="6.22498">
        <ele>557.09997558594</ele>
        <time>2012-10-30T13:13:42</time>
      </trkpt>
      <trkpt lat="43.63451" lon="6.22504">
        <ele>546.90002441406</ele>
        <time>2012-10-30T13:14:09</time>
      </trkpt>
      <trkpt lat="43.63467" lon="6.22503">
        <ele>547.20001220703</ele>
        <time>2012-10-30T13:14:22</time>
      </trkpt>
      <trkpt lat="43.63495" lon="6.225">
        <ele>547.20001220703</ele>
        <time>2012-10-30T13:14:47</time>
      </trkpt>
      <trkpt lat="43.63514" lon="6.22505">
        <ele>539.90002441406</ele>
        <time>2012-10-30T13:15:04</time>
      </trkpt>
      <trkpt lat="43.63539" lon="6.22496">
        <ele>535.5</ele>
        <time>2012-10-30T13:16:34</time>
      </trkpt>
      <trkpt lat="43.63547" lon="6.22486">
        <ele>534</ele>
        <time>2012-10-30T13:16:44</time>
      </trkpt>
      <trkpt lat="43.63549" lon="6.22458">
        <ele>539.59997558594</ele>
        <time>2012-10-30T13:17:18</time>
      </trkpt>
      <trkpt lat="43.63605" lon="6.22466">
        <ele>551.20001220703</ele>
        <time>2012-10-30T13:28:52</time>
      </trkpt>
      <trkpt lat="43.63592" lon="6.22469">
        <ele>533.5</ele>
        <time>2012-10-30T13:29:28</time>
      </trkpt>
      <trkpt lat="43.63585" lon="6.22456">
        <ele>538.90002441406</ele>
        <time>2012-10-30T13:29:55</time>
      </trkpt>
      <trkpt lat="43.6352" lon="6.22454">
        <ele>527</ele>
        <time>2012-10-30T13:49:39</time>
      </trkpt>
      <trkpt lat="43.63517" lon="6.22429">
        <ele>530.29998779297</ele>
        <time>2012-10-30T13:49:55</time>
      </trkpt>
      <trkpt lat="43.63507" lon="6.22391">
        <ele>533.59997558594</ele>
        <time>2012-10-30T13:50:21</time>
      </trkpt>
      <trkpt lat="43.63492" lon="6.2238">
        <ele>538.20001220703</ele>
        <time>2012-10-30T13:50:40</time>
      </trkpt>
      <trkpt lat="43.63462" lon="6.22358">
        <ele>535.79998779297</ele>
        <time>2012-10-30T13:51:11</time>
      </trkpt>
      <trkpt lat="43.63449" lon="6.22345">
        <ele>540.40002441406</ele>
        <time>2012-10-30T13:51:23</time>
      </trkpt>
      <trkpt lat="43.63407" lon="6.22313">
        <ele>523.90002441406</ele>
        <time>2012-10-30T13:51:53</time>
      </trkpt>
      <trkpt lat="43.63387" lon="6.22311">
        <ele>518.09997558594</ele>
        <time>2012-10-30T13:52:05</time>
      </trkpt>
      <trkpt lat="43.63361" lon="6.22314">
        <ele>521.40002441406</ele>
        <time>2012-10-30T13:52:25</time>
      </trkpt>
      <trkpt lat="43.63339" lon="6.22315">
        <ele>521.09997558594</ele>
        <time>2012-10-30T13:52:41</time>
      </trkpt>
      <trkpt lat="43.63305" lon="6.22317">
        <ele>519.09997558594</ele>
        <time>2012-10-30T13:53:03</time>
      </trkpt>
      <trkpt lat="43.63281" lon="6.22315">
        <ele>521.40002441406</ele>
        <time>2012-10-30T13:53:23</time>
      </trkpt>
      <trkpt lat="43.63257" lon="6.22315">
        <ele>522.70001220703</ele>
        <time>2012-10-30T13:53:41</time>
      </trkpt>
      <trkpt lat="43.63241" lon="6.22318">
        <ele>529.5</ele>
        <time>2012-10-30T13:53:58</time>
      </trkpt>
      <trkpt lat="43.63197" lon="6.22315">
        <ele>528</ele>
        <time>2012-10-30T13:54:34</time>
      </trkpt>
      <trkpt lat="43.63183" lon="6.22315">
        <ele>524.09997558594</ele>
        <time>2012-10-30T13:54:46</time>
      </trkpt>
      <trkpt lat="43.6316" lon="6.22313">
        <ele>515.20001220703</ele>
        <time>2012-10-30T13:55:01</time>
      </trkpt>
      <trkpt lat="43.63121" lon="6.22314">
        <ele>507.5</ele>
        <time>2012-10-30T13:55:28</time>
      </trkpt>
      <trkpt lat="43.63105" lon="6.2232">
        <ele>511.79998779297</ele>
        <time>2012-10-30T13:55:45</time>
      </trkpt>
      <trkpt lat="43.63083" lon="6.22331">
        <ele>515.20001220703</ele>
        <time>2012-10-30T13:56:13</time>
      </trkpt>
      <trkpt lat="43.63085" lon="6.22353">
        <ele>509.90002441406</ele>
        <time>2012-10-30T13:56:32</time>
      </trkpt>
      <trkpt lat="43.63067" lon="6.22373">
        <ele>524.09997558594</ele>
        <time>2012-10-30T13:57:26</time>
      </trkpt>
      <trkpt lat="43.63065" lon="6.22402">
        <ele>513</ele>
        <time>2012-10-30T13:57:40</time>
      </trkpt>
      <trkpt lat="43.63063" lon="6.22399">
        <ele>509.70001220703</ele>
        <time>2012-10-30T14:00:40</time>
      </trkpt>
      <trkpt lat="43.63047" lon="6.22412">
        <ele>498.5</ele>
        <time>2012-10-30T14:01:02</time>
      </trkpt>
      <trkpt lat="43.63018" lon="6.22422">
        <ele>510.40002441406</ele>
        <time>2012-10-30T14:01:36</time>
      </trkpt>
      <trkpt lat="43.62998" lon="6.22437">
        <ele>517</ele>
        <time>2012-10-30T14:01:56</time>
      </trkpt>
      <trkpt lat="43.62975" lon="6.22452">
        <ele>516.70001220703</ele>
        <time>2012-10-30T14:02:18</time>
      </trkpt>
      <trkpt lat="43.62956" lon="6.22465">
        <ele>515.79998779297</ele>
        <time>2012-10-30T14:02:35</time>
      </trkpt>
      <trkpt lat="43.62935" lon="6.22461">
        <ele>511.90002441406</ele>
        <time>2012-10-30T14:03:12</time>
      </trkpt>
      <trkpt lat="43.62908" lon="6.22452">
        <ele>509.79998779297</ele>
        <time>2012-10-30T14:04:00</time>
      </trkpt>
      <trkpt lat="43.62893" lon="6.22448">
        <ele>509.59997558594</ele>
        <time>2012-10-30T14:04:16</time>
      </trkpt>
      <trkpt lat="43.62898" lon="6.22458">
        <ele>508</ele>
        <time>2012-10-30T14:04:37</time>
      </trkpt>
      <trkpt lat="43.62883" lon="6.22489">
        <ele>513.90002441406</ele>
        <time>2012-10-30T14:05:37</time>
      </trkpt>
      <trkpt lat="43.62854" lon="6.22504">
        <ele>517.5</ele>
        <time>2012-10-30T14:06:13</time>
      </trkpt>
      <trkpt lat="43.62847" lon="6.22505">
        <ele>508.79998779297</ele>
        <time>2012-10-30T14:06:22</time>
      </trkpt>
      <trkpt lat="43.62828" lon="6.22451">
        <ele>505.59997558594</ele>
        <time>2012-10-30T14:07:00</time>
      </trkpt>
      <trkpt lat="43.6281" lon="6.22442">
        <ele>501.90002441406</ele>
        <time>2012-10-30T14:07:14</time>
      </trkpt>
      <trkpt lat="43.62772" lon="6.22435">
        <ele>499.79998779297</ele>
        <time>2012-10-30T14:07:47</time>
      </trkpt>
      <trkpt lat="43.62748" lon="6.22421">
        <ele>499.79998779297</ele>
        <time>2012-10-30T14:08:08</time>
      </trkpt>
      <trkpt lat="43.62737" lon="6.22423">
        <ele>499.70001220703</ele>
        <time>2012-10-30T14:08:17</time>
      </trkpt>
      <trkpt lat="43.62699" lon="6.22437">
        <ele>505.90002441406</ele>
        <time>2012-10-30T14:09:51</time>
      </trkpt>
      <trkpt lat="43.62693" lon="6.22452">
        <ele>505.20001220703</ele>
        <time>2012-10-30T14:10:09</time>
      </trkpt>
      <trkpt lat="43.62712" lon="6.22491">
        <ele>493.79998779297</ele>
        <time>2012-10-30T14:15:00</time>
      </trkpt>
      <trkpt lat="43.62726" lon="6.22496">
        <ele>494.40002441406</ele>
        <time>2012-10-30T14:15:13</time>
      </trkpt>
      <trkpt lat="43.62733" lon="6.22541">
        <ele>490.40002441406</ele>
        <time>2012-10-30T14:15:55</time>
      </trkpt>
      <trkpt lat="43.62742" lon="6.22571">
        <ele>495.90002441406</ele>
        <time>2012-10-30T14:16:11</time>
      </trkpt>
      <trkpt lat="43.62752" lon="6.22603">
        <ele>494.70001220703</ele>
        <time>2012-10-30T14:16:30</time>
      </trkpt>
      <trkpt lat="43.62754" lon="6.22609">
        <ele>491.40002441406</ele>
        <time>2012-10-30T14:16:36</time>
      </trkpt>
      <trkpt lat="43.62783" lon="6.22602">
        <ele>491</ele>
        <time>2012-10-30T14:17:13</time>
      </trkpt>
      <trkpt lat="43.62783" lon="6.22635">
        <ele>493.40002441406</ele>
        <time>2012-10-30T14:17:54</time>
      </trkpt>
    </trkseg>
  </trk>
</gpx>